<?xml version="1.0" encoding="UTF-8" standalone="no" ?>
<gpx xmlns="http://www.topografix.com/GPX/1/1" xmlns:xsi="http://www.w3.org/2001/XMLSchema-instance" xsi:schemaLocation="http://www.topografix.com/GPX/1/1 http://www.topografix.com/GPX/1/1/gpx.xsd" version="1.1" creator="VisuGPX - https://www.visugpx.com">
  <metadata>
    <name>Samu's Cup 2019</name>
    <desc><![CDATA[régate des SAMU de France
port de Saint Mandrier sur mer
cagnard 16 Garches 2
embarcation Dufour 410
équipage Bruno Fred Cécile Coralyne Sophie Jean Marc Christian
belle météo sur la semaine 
1 BMS 28/05 pas de sortie
14ème/26
détail samuscup.fr]]></desc>
  </metadata>
  <trk>
    <name><![CDATA[Tracé actuel: 26 MAI 2019 12:03]]></name>
    <trkseg>
      <trkpt lat="43.08006" lon="5.92434">
        <ele>3.5</ele>
        <time>2019-05-26T10:03:56Z</time>
      </trkpt>
      <trkpt lat="43.08009" lon="5.92438">
        <ele>0.14</ele>
        <time>2019-05-26T10:04:29Z</time>
      </trkpt>
      <trkpt lat="43.08007" lon="5.92439">
        <ele>-1.3</ele>
        <time>2019-05-26T10:05:03Z</time>
      </trkpt>
      <trkpt lat="43.08007" lon="5.92441">
        <ele>2.54</ele>
        <time>2019-05-26T10:05:28Z</time>
      </trkpt>
      <trkpt lat="43.08009" lon="5.92441">
        <ele>3.98</ele>
        <time>2019-05-26T10:06:04Z</time>
      </trkpt>
      <trkpt lat="43.08009" lon="5.92441">
        <ele>2.54</ele>
        <time>2019-05-26T10:06:36Z</time>
      </trkpt>
      <trkpt lat="43.08017" lon="5.9244">
        <ele>3.02</ele>
        <time>2019-05-26T10:07:01Z</time>
      </trkpt>
      <trkpt lat="43.08023" lon="5.92445">
        <ele>3.02</ele>
        <time>2019-05-26T10:07:11Z</time>
      </trkpt>
      <trkpt lat="43.08037" lon="5.92482">
        <ele>3.98</ele>
        <time>2019-05-26T10:07:36Z</time>
      </trkpt>
      <trkpt lat="43.08071" lon="5.92502">
        <ele>2.06</ele>
        <time>2019-05-26T10:08:02Z</time>
      </trkpt>
      <trkpt lat="43.08125" lon="5.92504">
        <ele>1.1</ele>
        <time>2019-05-26T10:08:30Z</time>
      </trkpt>
      <trkpt lat="43.08187" lon="5.92504">
        <ele>1.1</ele>
        <time>2019-05-26T10:09:04Z</time>
      </trkpt>
      <trkpt lat="43.08255" lon="5.92493">
        <ele>0.14</ele>
        <time>2019-05-26T10:09:43Z</time>
      </trkpt>
      <trkpt lat="43.08301" lon="5.92495">
        <ele>-0.82</ele>
        <time>2019-05-26T10:10:10Z</time>
      </trkpt>
      <trkpt lat="43.08353" lon="5.92499">
        <ele>-0.34</ele>
        <time>2019-05-26T10:10:42Z</time>
      </trkpt>
      <trkpt lat="43.08391" lon="5.92501">
        <ele>-0.34</ele>
        <time>2019-05-26T10:11:06Z</time>
      </trkpt>
      <trkpt lat="43.08443" lon="5.92495">
        <ele>-1.3</ele>
        <time>2019-05-26T10:11:39Z</time>
      </trkpt>
      <trkpt lat="43.08487" lon="5.92482">
        <ele>-1.79</ele>
        <time>2019-05-26T10:12:06Z</time>
      </trkpt>
      <trkpt lat="43.08528" lon="5.92459">
        <ele>-1.3</ele>
        <time>2019-05-26T10:12:33Z</time>
      </trkpt>
      <trkpt lat="43.08567" lon="5.92434">
        <ele>-0.82</ele>
        <time>2019-05-26T10:12:59Z</time>
      </trkpt>
      <trkpt lat="43.08608" lon="5.92426">
        <ele>-0.82</ele>
        <time>2019-05-26T10:13:25Z</time>
      </trkpt>
      <trkpt lat="43.08648" lon="5.92429">
        <ele>-1.79</ele>
        <time>2019-05-26T10:13:51Z</time>
      </trkpt>
      <trkpt lat="43.08666" lon="5.92482">
        <ele>-0.82</ele>
        <time>2019-05-26T10:14:15Z</time>
      </trkpt>
      <trkpt lat="43.08684" lon="5.92556">
        <ele>0.14</ele>
        <time>2019-05-26T10:14:44Z</time>
      </trkpt>
      <trkpt lat="43.08719" lon="5.92617">
        <ele>-0.82</ele>
        <time>2019-05-26T10:15:14Z</time>
      </trkpt>
      <trkpt lat="43.08757" lon="5.92675">
        <ele>-3.23</ele>
        <time>2019-05-26T10:15:43Z</time>
      </trkpt>
      <trkpt lat="43.08805" lon="5.92733">
        <ele>-1.3</ele>
        <time>2019-05-26T10:16:16Z</time>
      </trkpt>
      <trkpt lat="43.08839" lon="5.92773">
        <ele>-0.34</ele>
        <time>2019-05-26T10:16:41Z</time>
      </trkpt>
      <trkpt lat="43.0888" lon="5.92816">
        <ele>-2.27</ele>
        <time>2019-05-26T10:17:11Z</time>
      </trkpt>
      <trkpt lat="43.0891" lon="5.92851">
        <ele>-2.75</ele>
        <time>2019-05-26T10:17:33Z</time>
      </trkpt>
      <trkpt lat="43.08949" lon="5.92885">
        <ele>-3.23</ele>
        <time>2019-05-26T10:17:58Z</time>
      </trkpt>
      <trkpt lat="43.08988" lon="5.92924">
        <ele>-2.75</ele>
        <time>2019-05-26T10:18:24Z</time>
      </trkpt>
      <trkpt lat="43.09019" lon="5.92966">
        <ele>-3.23</ele>
        <time>2019-05-26T10:18:48Z</time>
      </trkpt>
      <trkpt lat="43.09052" lon="5.93017">
        <ele>-3.23</ele>
        <time>2019-05-26T10:19:14Z</time>
      </trkpt>
      <trkpt lat="43.09084" lon="5.93072">
        <ele>-2.27</ele>
        <time>2019-05-26T10:19:41Z</time>
      </trkpt>
      <trkpt lat="43.09106" lon="5.93112">
        <ele>-2.27</ele>
        <time>2019-05-26T10:20:00Z</time>
      </trkpt>
      <trkpt lat="43.09133" lon="5.93164">
        <ele>-1.3</ele>
        <time>2019-05-26T10:20:24Z</time>
      </trkpt>
      <trkpt lat="43.09167" lon="5.93212">
        <ele>-3.23</ele>
        <time>2019-05-26T10:20:50Z</time>
      </trkpt>
      <trkpt lat="43.09201" lon="5.93262">
        <ele>-3.23</ele>
        <time>2019-05-26T10:21:18Z</time>
      </trkpt>
      <trkpt lat="43.09226" lon="5.93292">
        <ele>-2.75</ele>
        <time>2019-05-26T10:21:38Z</time>
      </trkpt>
      <trkpt lat="43.09258" lon="5.93277">
        <ele>-1.79</ele>
        <time>2019-05-26T10:21:59Z</time>
      </trkpt>
      <trkpt lat="43.09299" lon="5.93245">
        <ele>-1.3</ele>
        <time>2019-05-26T10:22:25Z</time>
      </trkpt>
      <trkpt lat="43.09332" lon="5.93216">
        <ele>-0.82</ele>
        <time>2019-05-26T10:22:45Z</time>
      </trkpt>
      <trkpt lat="43.0937" lon="5.93187">
        <ele>-0.34</ele>
        <time>2019-05-26T10:23:06Z</time>
      </trkpt>
      <trkpt lat="43.09413" lon="5.93157">
        <ele>0.14</ele>
        <time>2019-05-26T10:23:30Z</time>
      </trkpt>
      <trkpt lat="43.09455" lon="5.93127">
        <ele>-0.34</ele>
        <time>2019-05-26T10:23:54Z</time>
      </trkpt>
      <trkpt lat="43.09498" lon="5.931">
        <ele>0.62</ele>
        <time>2019-05-26T10:24:17Z</time>
      </trkpt>
      <trkpt lat="43.09536" lon="5.93065">
        <ele>-0.82</ele>
        <time>2019-05-26T10:24:37Z</time>
      </trkpt>
      <trkpt lat="43.09579" lon="5.93036">
        <ele>-1.3</ele>
        <time>2019-05-26T10:24:57Z</time>
      </trkpt>
      <trkpt lat="43.0959" lon="5.93076">
        <ele>-2.27</ele>
        <time>2019-05-26T10:25:11Z</time>
      </trkpt>
      <trkpt lat="43.09599" lon="5.93166">
        <ele>-2.27</ele>
        <time>2019-05-26T10:25:34Z</time>
      </trkpt>
      <trkpt lat="43.09611" lon="5.93266">
        <ele>-1.79</ele>
        <time>2019-05-26T10:25:57Z</time>
      </trkpt>
      <trkpt lat="43.0963" lon="5.93319">
        <ele>-1.79</ele>
        <time>2019-05-26T10:26:13Z</time>
      </trkpt>
      <trkpt lat="43.09654" lon="5.93292">
        <ele>-1.79</ele>
        <time>2019-05-26T10:26:27Z</time>
      </trkpt>
      <trkpt lat="43.09696" lon="5.93248">
        <ele>-1.3</ele>
        <time>2019-05-26T10:26:49Z</time>
      </trkpt>
      <trkpt lat="43.09752" lon="5.93189">
        <ele>-2.27</ele>
        <time>2019-05-26T10:27:14Z</time>
      </trkpt>
      <trkpt lat="43.09782" lon="5.93177">
        <ele>-1.79</ele>
        <time>2019-05-26T10:27:30Z</time>
      </trkpt>
      <trkpt lat="43.0979" lon="5.93226">
        <ele>-1.3</ele>
        <time>2019-05-26T10:27:47Z</time>
      </trkpt>
      <trkpt lat="43.09786" lon="5.9331">
        <ele>-0.82</ele>
        <time>2019-05-26T10:28:12Z</time>
      </trkpt>
      <trkpt lat="43.09761" lon="5.93384">
        <ele>-1.79</ele>
        <time>2019-05-26T10:28:35Z</time>
      </trkpt>
      <trkpt lat="43.09727" lon="5.93437">
        <ele>-0.82</ele>
        <time>2019-05-26T10:28:55Z</time>
      </trkpt>
      <trkpt lat="43.09682" lon="5.93492">
        <ele>-1.79</ele>
        <time>2019-05-26T10:29:20Z</time>
      </trkpt>
      <trkpt lat="43.09641" lon="5.9354">
        <ele>-1.79</ele>
        <time>2019-05-26T10:29:43Z</time>
      </trkpt>
      <trkpt lat="43.09623" lon="5.93585">
        <ele>-1.79</ele>
        <time>2019-05-26T10:30:00Z</time>
      </trkpt>
      <trkpt lat="43.09632" lon="5.93667">
        <ele>-1.3</ele>
        <time>2019-05-26T10:30:23Z</time>
      </trkpt>
      <trkpt lat="43.09654" lon="5.93754">
        <ele>-0.82</ele>
        <time>2019-05-26T10:30:45Z</time>
      </trkpt>
      <trkpt lat="43.09672" lon="5.93827">
        <ele>-0.34</ele>
        <time>2019-05-26T10:31:05Z</time>
      </trkpt>
      <trkpt lat="43.09688" lon="5.93913">
        <ele>-1.3</ele>
        <time>2019-05-26T10:31:28Z</time>
      </trkpt>
      <trkpt lat="43.09705" lon="5.94007">
        <ele>-1.3</ele>
        <time>2019-05-26T10:31:51Z</time>
      </trkpt>
      <trkpt lat="43.09722" lon="5.94101">
        <ele>-1.3</ele>
        <time>2019-05-26T10:32:14Z</time>
      </trkpt>
      <trkpt lat="43.09738" lon="5.94179">
        <ele>-1.3</ele>
        <time>2019-05-26T10:32:34Z</time>
      </trkpt>
      <trkpt lat="43.09753" lon="5.9427">
        <ele>-1.79</ele>
        <time>2019-05-26T10:32:56Z</time>
      </trkpt>
      <trkpt lat="43.09758" lon="5.94346">
        <ele>-2.27</ele>
        <time>2019-05-26T10:33:15Z</time>
      </trkpt>
      <trkpt lat="43.09754" lon="5.94428">
        <ele>-1.79</ele>
        <time>2019-05-26T10:33:36Z</time>
      </trkpt>
      <trkpt lat="43.09752" lon="5.94491">
        <ele>-0.82</ele>
        <time>2019-05-26T10:33:54Z</time>
      </trkpt>
      <trkpt lat="43.09752" lon="5.94556">
        <ele>-1.79</ele>
        <time>2019-05-26T10:34:14Z</time>
      </trkpt>
      <trkpt lat="43.09759" lon="5.94617">
        <ele>-2.27</ele>
        <time>2019-05-26T10:34:33Z</time>
      </trkpt>
      <trkpt lat="43.09772" lon="5.94686">
        <ele>-2.27</ele>
        <time>2019-05-26T10:34:52Z</time>
      </trkpt>
      <trkpt lat="43.09791" lon="5.94755">
        <ele>-2.27</ele>
        <time>2019-05-26T10:35:10Z</time>
      </trkpt>
      <trkpt lat="43.09814" lon="5.94745">
        <ele>-1.79</ele>
        <time>2019-05-26T10:35:22Z</time>
      </trkpt>
      <trkpt lat="43.09837" lon="5.94692">
        <ele>-2.27</ele>
        <time>2019-05-26T10:35:41Z</time>
      </trkpt>
      <trkpt lat="43.09843" lon="5.94601">
        <ele>-1.79</ele>
        <time>2019-05-26T10:36:05Z</time>
      </trkpt>
      <trkpt lat="43.09851" lon="5.94516">
        <ele>-1.3</ele>
        <time>2019-05-26T10:36:29Z</time>
      </trkpt>
      <trkpt lat="43.09855" lon="5.94446">
        <ele>-1.3</ele>
        <time>2019-05-26T10:36:48Z</time>
      </trkpt>
      <trkpt lat="43.09859" lon="5.94358">
        <ele>-1.3</ele>
        <time>2019-05-26T10:37:13Z</time>
      </trkpt>
      <trkpt lat="43.09862" lon="5.94268">
        <ele>-1.79</ele>
        <time>2019-05-26T10:37:38Z</time>
      </trkpt>
      <trkpt lat="43.09875" lon="5.94186">
        <ele>-0.82</ele>
        <time>2019-05-26T10:37:59Z</time>
      </trkpt>
      <trkpt lat="43.09879" lon="5.94102">
        <ele>-0.82</ele>
        <time>2019-05-26T10:38:20Z</time>
      </trkpt>
      <trkpt lat="43.09878" lon="5.94027">
        <ele>-1.3</ele>
        <time>2019-05-26T10:38:42Z</time>
      </trkpt>
      <trkpt lat="43.09884" lon="5.93965">
        <ele>-0.82</ele>
        <time>2019-05-26T10:39:03Z</time>
      </trkpt>
      <trkpt lat="43.09903" lon="5.93961">
        <ele>-1.3</ele>
        <time>2019-05-26T10:39:19Z</time>
      </trkpt>
      <trkpt lat="43.09918" lon="5.93993">
        <ele>-2.27</ele>
        <time>2019-05-26T10:39:41Z</time>
      </trkpt>
      <trkpt lat="43.09919" lon="5.94048">
        <ele>-3.23</ele>
        <time>2019-05-26T10:40:01Z</time>
      </trkpt>
      <trkpt lat="43.09915" lon="5.94114">
        <ele>-2.27</ele>
        <time>2019-05-26T10:40:21Z</time>
      </trkpt>
      <trkpt lat="43.09916" lon="5.94195">
        <ele>-1.79</ele>
        <time>2019-05-26T10:40:43Z</time>
      </trkpt>
      <trkpt lat="43.09913" lon="5.94265">
        <ele>-2.27</ele>
        <time>2019-05-26T10:41:02Z</time>
      </trkpt>
      <trkpt lat="43.09903" lon="5.94328">
        <ele>-2.27</ele>
        <time>2019-05-26T10:41:20Z</time>
      </trkpt>
      <trkpt lat="43.09894" lon="5.94401">
        <ele>-1.79</ele>
        <time>2019-05-26T10:41:42Z</time>
      </trkpt>
      <trkpt lat="43.09888" lon="5.94463">
        <ele>-1.3</ele>
        <time>2019-05-26T10:42:01Z</time>
      </trkpt>
      <trkpt lat="43.09878" lon="5.94537">
        <ele>-1.79</ele>
        <time>2019-05-26T10:42:24Z</time>
      </trkpt>
      <trkpt lat="43.09869" lon="5.94591">
        <ele>-1.79</ele>
        <time>2019-05-26T10:42:40Z</time>
      </trkpt>
      <trkpt lat="43.09864" lon="5.94656">
        <ele>-0.82</ele>
        <time>2019-05-26T10:42:58Z</time>
      </trkpt>
      <trkpt lat="43.09856" lon="5.94743">
        <ele>-0.82</ele>
        <time>2019-05-26T10:43:19Z</time>
      </trkpt>
      <trkpt lat="43.09869" lon="5.94793">
        <ele>-0.82</ele>
        <time>2019-05-26T10:43:34Z</time>
      </trkpt>
      <trkpt lat="43.09887" lon="5.9478">
        <ele>-0.34</ele>
        <time>2019-05-26T10:43:47Z</time>
      </trkpt>
      <trkpt lat="43.09888" lon="5.94719">
        <ele>-0.34</ele>
        <time>2019-05-26T10:44:08Z</time>
      </trkpt>
      <trkpt lat="43.09877" lon="5.9463">
        <ele>-0.34</ele>
        <time>2019-05-26T10:44:32Z</time>
      </trkpt>
      <trkpt lat="43.09852" lon="5.94544">
        <ele>0.62</ele>
        <time>2019-05-26T10:44:57Z</time>
      </trkpt>
      <trkpt lat="43.09831" lon="5.94474">
        <ele>1.1</ele>
        <time>2019-05-26T10:45:18Z</time>
      </trkpt>
      <trkpt lat="43.09832" lon="5.94379">
        <ele>1.58</ele>
        <time>2019-05-26T10:45:42Z</time>
      </trkpt>
      <trkpt lat="43.09839" lon="5.94288">
        <ele>2.06</ele>
        <time>2019-05-26T10:46:06Z</time>
      </trkpt>
      <trkpt lat="43.09847" lon="5.94207">
        <ele>2.54</ele>
        <time>2019-05-26T10:46:29Z</time>
      </trkpt>
      <trkpt lat="43.09851" lon="5.94121">
        <ele>1.1</ele>
        <time>2019-05-26T10:46:53Z</time>
      </trkpt>
      <trkpt lat="43.09857" lon="5.94062">
        <ele>1.1</ele>
        <time>2019-05-26T10:47:12Z</time>
      </trkpt>
      <trkpt lat="43.0988" lon="5.94051">
        <ele>0.14</ele>
        <time>2019-05-26T10:47:27Z</time>
      </trkpt>
      <trkpt lat="43.09889" lon="5.94022">
        <ele>0.14</ele>
        <time>2019-05-26T10:47:45Z</time>
      </trkpt>
      <trkpt lat="43.09883" lon="5.93967">
        <ele>-0.82</ele>
        <time>2019-05-26T10:48:06Z</time>
      </trkpt>
      <trkpt lat="43.09868" lon="5.93903">
        <ele>1.1</ele>
        <time>2019-05-26T10:48:27Z</time>
      </trkpt>
      <trkpt lat="43.09854" lon="5.93841">
        <ele>0.14</ele>
        <time>2019-05-26T10:48:49Z</time>
      </trkpt>
      <trkpt lat="43.0986" lon="5.93794">
        <ele>-0.34</ele>
        <time>2019-05-26T10:49:06Z</time>
      </trkpt>
      <trkpt lat="43.09882" lon="5.93782">
        <ele>-0.82</ele>
        <time>2019-05-26T10:49:23Z</time>
      </trkpt>
      <trkpt lat="43.09883" lon="5.93753">
        <ele>0.14</ele>
        <time>2019-05-26T10:49:40Z</time>
      </trkpt>
      <trkpt lat="43.09873" lon="5.937">
        <ele>1.1</ele>
        <time>2019-05-26T10:50:04Z</time>
      </trkpt>
      <trkpt lat="43.09866" lon="5.93645">
        <ele>1.1</ele>
        <time>2019-05-26T10:50:24Z</time>
      </trkpt>
      <trkpt lat="43.09886" lon="5.93647">
        <ele>-0.34</ele>
        <time>2019-05-26T10:50:39Z</time>
      </trkpt>
      <trkpt lat="43.09897" lon="5.93675">
        <ele>-0.34</ele>
        <time>2019-05-26T10:50:57Z</time>
      </trkpt>
      <trkpt lat="43.09891" lon="5.93724">
        <ele>-0.34</ele>
        <time>2019-05-26T10:51:19Z</time>
      </trkpt>
      <trkpt lat="43.09887" lon="5.93773">
        <ele>0.62</ele>
        <time>2019-05-26T10:51:40Z</time>
      </trkpt>
      <trkpt lat="43.09883" lon="5.93818">
        <ele>0.62</ele>
        <time>2019-05-26T10:52:02Z</time>
      </trkpt>
      <trkpt lat="43.0988" lon="5.93873">
        <ele>1.1</ele>
        <time>2019-05-26T10:52:26Z</time>
      </trkpt>
      <trkpt lat="43.09876" lon="5.93949">
        <ele>0.62</ele>
        <time>2019-05-26T10:52:49Z</time>
      </trkpt>
      <trkpt lat="43.09867" lon="5.94026">
        <ele>-0.82</ele>
        <time>2019-05-26T10:53:13Z</time>
      </trkpt>
      <trkpt lat="43.09856" lon="5.94078">
        <ele>-0.82</ele>
        <time>2019-05-26T10:53:34Z</time>
      </trkpt>
      <trkpt lat="43.09847" lon="5.94126">
        <ele>-1.3</ele>
        <time>2019-05-26T10:53:56Z</time>
      </trkpt>
      <trkpt lat="43.09846" lon="5.94174">
        <ele>-1.79</ele>
        <time>2019-05-26T10:54:15Z</time>
      </trkpt>
      <trkpt lat="43.09861" lon="5.94193">
        <ele>-0.82</ele>
        <time>2019-05-26T10:54:27Z</time>
      </trkpt>
      <trkpt lat="43.09859" lon="5.94166">
        <ele>-0.34</ele>
        <time>2019-05-26T10:54:39Z</time>
      </trkpt>
      <trkpt lat="43.09842" lon="5.94108">
        <ele>-0.34</ele>
        <time>2019-05-26T10:55:02Z</time>
      </trkpt>
      <trkpt lat="43.0983" lon="5.94053">
        <ele>-0.82</ele>
        <time>2019-05-26T10:55:24Z</time>
      </trkpt>
      <trkpt lat="43.09822" lon="5.93989">
        <ele>-0.82</ele>
        <time>2019-05-26T10:55:50Z</time>
      </trkpt>
      <trkpt lat="43.09824" lon="5.9394">
        <ele>0.62</ele>
        <time>2019-05-26T10:56:12Z</time>
      </trkpt>
      <trkpt lat="43.09818" lon="5.93894">
        <ele>-0.34</ele>
        <time>2019-05-26T10:56:35Z</time>
      </trkpt>
      <trkpt lat="43.09817" lon="5.93855">
        <ele>0.14</ele>
        <time>2019-05-26T10:56:58Z</time>
      </trkpt>
      <trkpt lat="43.09839" lon="5.9386">
        <ele>-1.3</ele>
        <time>2019-05-26T10:57:16Z</time>
      </trkpt>
      <trkpt lat="43.09884" lon="5.93878">
        <ele>-0.34</ele>
        <time>2019-05-26T10:57:46Z</time>
      </trkpt>
      <trkpt lat="43.09904" lon="5.93908">
        <ele>-0.34</ele>
        <time>2019-05-26T10:58:07Z</time>
      </trkpt>
      <trkpt lat="43.09887" lon="5.93952">
        <ele>-1.3</ele>
        <time>2019-05-26T10:58:23Z</time>
      </trkpt>
      <trkpt lat="43.09853" lon="5.94012">
        <ele>-1.79</ele>
        <time>2019-05-26T10:58:44Z</time>
      </trkpt>
      <trkpt lat="43.09817" lon="5.94037">
        <ele>-0.34</ele>
        <time>2019-05-26T10:59:00Z</time>
      </trkpt>
      <trkpt lat="43.09787" lon="5.94009">
        <ele>-1.3</ele>
        <time>2019-05-26T10:59:19Z</time>
      </trkpt>
      <trkpt lat="43.09764" lon="5.93962">
        <ele>-1.79</ele>
        <time>2019-05-26T10:59:41Z</time>
      </trkpt>
      <trkpt lat="43.0973" lon="5.93912">
        <ele>-2.27</ele>
        <time>2019-05-26T11:00:05Z</time>
      </trkpt>
      <trkpt lat="43.09693" lon="5.93857">
        <ele>-3.23</ele>
        <time>2019-05-26T11:00:30Z</time>
      </trkpt>
      <trkpt lat="43.09664" lon="5.93806">
        <ele>-3.23</ele>
        <time>2019-05-26T11:00:53Z</time>
      </trkpt>
      <trkpt lat="43.09629" lon="5.93743">
        <ele>-3.23</ele>
        <time>2019-05-26T11:01:21Z</time>
      </trkpt>
      <trkpt lat="43.096" lon="5.9369">
        <ele>-2.75</ele>
        <time>2019-05-26T11:01:44Z</time>
      </trkpt>
      <trkpt lat="43.09587" lon="5.93636">
        <ele>-2.75</ele>
        <time>2019-05-26T11:02:05Z</time>
      </trkpt>
      <trkpt lat="43.09574" lon="5.93576">
        <ele>-2.27</ele>
        <time>2019-05-26T11:02:31Z</time>
      </trkpt>
      <trkpt lat="43.0958" lon="5.93557">
        <ele>-1.79</ele>
        <time>2019-05-26T11:02:46Z</time>
      </trkpt>
      <trkpt lat="43.09606" lon="5.93569">
        <ele>-2.27</ele>
        <time>2019-05-26T11:03:07Z</time>
      </trkpt>
      <trkpt lat="43.09646" lon="5.93582">
        <ele>-3.23</ele>
        <time>2019-05-26T11:03:31Z</time>
      </trkpt>
      <trkpt lat="43.09685" lon="5.93611">
        <ele>-3.71</ele>
        <time>2019-05-26T11:03:53Z</time>
      </trkpt>
      <trkpt lat="43.09736" lon="5.93654">
        <ele>-3.23</ele>
        <time>2019-05-26T11:04:18Z</time>
      </trkpt>
      <trkpt lat="43.09782" lon="5.93706">
        <ele>-1.79</ele>
        <time>2019-05-26T11:04:43Z</time>
      </trkpt>
      <trkpt lat="43.09822" lon="5.93752">
        <ele>-0.34</ele>
        <time>2019-05-26T11:05:07Z</time>
      </trkpt>
      <trkpt lat="43.09858" lon="5.93794">
        <ele>-0.34</ele>
        <time>2019-05-26T11:05:29Z</time>
      </trkpt>
      <trkpt lat="43.09902" lon="5.93842">
        <ele>0.14</ele>
        <time>2019-05-26T11:05:58Z</time>
      </trkpt>
      <trkpt lat="43.09937" lon="5.93884">
        <ele>0.62</ele>
        <time>2019-05-26T11:06:26Z</time>
      </trkpt>
      <trkpt lat="43.09966" lon="5.93917">
        <ele>0.62</ele>
        <time>2019-05-26T11:06:50Z</time>
      </trkpt>
      <trkpt lat="43.09996" lon="5.93953">
        <ele>0.62</ele>
        <time>2019-05-26T11:07:16Z</time>
      </trkpt>
      <trkpt lat="43.1002" lon="5.9398">
        <ele>-0.34</ele>
        <time>2019-05-26T11:07:40Z</time>
      </trkpt>
      <trkpt lat="43.10043" lon="5.94006">
        <ele>-0.34</ele>
        <time>2019-05-26T11:08:04Z</time>
      </trkpt>
      <trkpt lat="43.10063" lon="5.9403">
        <ele>-0.34</ele>
        <time>2019-05-26T11:08:28Z</time>
      </trkpt>
      <trkpt lat="43.10094" lon="5.94061">
        <ele>-2.27</ele>
        <time>2019-05-26T11:08:57Z</time>
      </trkpt>
      <trkpt lat="43.10118" lon="5.94091">
        <ele>-2.27</ele>
        <time>2019-05-26T11:09:20Z</time>
      </trkpt>
      <trkpt lat="43.10144" lon="5.94125">
        <ele>-1.79</ele>
        <time>2019-05-26T11:09:44Z</time>
      </trkpt>
      <trkpt lat="43.10167" lon="5.94163">
        <ele>-1.79</ele>
        <time>2019-05-26T11:10:06Z</time>
      </trkpt>
      <trkpt lat="43.10194" lon="5.94208">
        <ele>-1.3</ele>
        <time>2019-05-26T11:10:30Z</time>
      </trkpt>
      <trkpt lat="43.1021" lon="5.94244">
        <ele>-0.82</ele>
        <time>2019-05-26T11:10:50Z</time>
      </trkpt>
      <trkpt lat="43.10202" lon="5.94272">
        <ele>-0.34</ele>
        <time>2019-05-26T11:11:07Z</time>
      </trkpt>
      <trkpt lat="43.10182" lon="5.943">
        <ele>-0.82</ele>
        <time>2019-05-26T11:11:30Z</time>
      </trkpt>
      <trkpt lat="43.10162" lon="5.94322">
        <ele>-1.3</ele>
        <time>2019-05-26T11:11:52Z</time>
      </trkpt>
      <trkpt lat="43.10138" lon="5.94349">
        <ele>-1.79</ele>
        <time>2019-05-26T11:12:18Z</time>
      </trkpt>
      <trkpt lat="43.10114" lon="5.94376">
        <ele>-1.79</ele>
        <time>2019-05-26T11:12:44Z</time>
      </trkpt>
      <trkpt lat="43.10097" lon="5.94395">
        <ele>-1.3</ele>
        <time>2019-05-26T11:13:04Z</time>
      </trkpt>
      <trkpt lat="43.10075" lon="5.94418">
        <ele>-0.34</ele>
        <time>2019-05-26T11:13:30Z</time>
      </trkpt>
      <trkpt lat="43.10058" lon="5.94437">
        <ele>0.14</ele>
        <time>2019-05-26T11:13:54Z</time>
      </trkpt>
      <trkpt lat="43.10042" lon="5.94452">
        <ele>-0.82</ele>
        <time>2019-05-26T11:14:18Z</time>
      </trkpt>
      <trkpt lat="43.10028" lon="5.94469">
        <ele>0.14</ele>
        <time>2019-05-26T11:14:42Z</time>
      </trkpt>
      <trkpt lat="43.10013" lon="5.94485">
        <ele>-0.34</ele>
        <time>2019-05-26T11:15:10Z</time>
      </trkpt>
      <trkpt lat="43.10001" lon="5.94497">
        <ele>-0.82</ele>
        <time>2019-05-26T11:15:34Z</time>
      </trkpt>
      <trkpt lat="43.0999" lon="5.9451">
        <ele>-0.34</ele>
        <time>2019-05-26T11:15:59Z</time>
      </trkpt>
      <trkpt lat="43.09977" lon="5.94524">
        <ele>-0.82</ele>
        <time>2019-05-26T11:16:27Z</time>
      </trkpt>
      <trkpt lat="43.09966" lon="5.94537">
        <ele>-1.3</ele>
        <time>2019-05-26T11:16:54Z</time>
      </trkpt>
      <trkpt lat="43.09954" lon="5.94549">
        <ele>-1.3</ele>
        <time>2019-05-26T11:17:22Z</time>
      </trkpt>
      <trkpt lat="43.09945" lon="5.94561">
        <ele>-2.27</ele>
        <time>2019-05-26T11:17:50Z</time>
      </trkpt>
      <trkpt lat="43.09942" lon="5.94564">
        <ele>-1.3</ele>
        <time>2019-05-26T11:18:12Z</time>
      </trkpt>
      <trkpt lat="43.09939" lon="5.94569">
        <ele>-2.27</ele>
        <time>2019-05-26T11:18:35Z</time>
      </trkpt>
      <trkpt lat="43.09937" lon="5.94573">
        <ele>-2.75</ele>
        <time>2019-05-26T11:18:55Z</time>
      </trkpt>
      <trkpt lat="43.09934" lon="5.94578">
        <ele>-3.23</ele>
        <time>2019-05-26T11:19:20Z</time>
      </trkpt>
      <trkpt lat="43.09931" lon="5.94584">
        <ele>-2.27</ele>
        <time>2019-05-26T11:19:45Z</time>
      </trkpt>
      <trkpt lat="43.09915" lon="5.94607">
        <ele>-3.23</ele>
        <time>2019-05-26T11:20:07Z</time>
      </trkpt>
      <trkpt lat="43.09887" lon="5.94634">
        <ele>-1.79</ele>
        <time>2019-05-26T11:20:30Z</time>
      </trkpt>
      <trkpt lat="43.09867" lon="5.94661">
        <ele>-0.82</ele>
        <time>2019-05-26T11:21:00Z</time>
      </trkpt>
      <trkpt lat="43.09852" lon="5.94683">
        <ele>-0.82</ele>
        <time>2019-05-26T11:21:26Z</time>
      </trkpt>
      <trkpt lat="43.09837" lon="5.94704">
        <ele>-0.34</ele>
        <time>2019-05-26T11:21:50Z</time>
      </trkpt>
      <trkpt lat="43.09822" lon="5.94726">
        <ele>-0.34</ele>
        <time>2019-05-26T11:22:14Z</time>
      </trkpt>
      <trkpt lat="43.09805" lon="5.94749">
        <ele>-0.82</ele>
        <time>2019-05-26T11:22:40Z</time>
      </trkpt>
      <trkpt lat="43.09792" lon="5.94769">
        <ele>-0.82</ele>
        <time>2019-05-26T11:23:04Z</time>
      </trkpt>
      <trkpt lat="43.09782" lon="5.94789">
        <ele>-0.34</ele>
        <time>2019-05-26T11:23:28Z</time>
      </trkpt>
      <trkpt lat="43.09773" lon="5.94805">
        <ele>-0.34</ele>
        <time>2019-05-26T11:23:52Z</time>
      </trkpt>
      <trkpt lat="43.09765" lon="5.94819">
        <ele>-1.79</ele>
        <time>2019-05-26T11:24:16Z</time>
      </trkpt>
      <trkpt lat="43.09755" lon="5.94835">
        <ele>-1.3</ele>
        <time>2019-05-26T11:24:42Z</time>
      </trkpt>
      <trkpt lat="43.09743" lon="5.94852">
        <ele>0.62</ele>
        <time>2019-05-26T11:25:09Z</time>
      </trkpt>
      <trkpt lat="43.09734" lon="5.94865">
        <ele>0.62</ele>
        <time>2019-05-26T11:25:35Z</time>
      </trkpt>
      <trkpt lat="43.09724" lon="5.94878">
        <ele>0.62</ele>
        <time>2019-05-26T11:26:01Z</time>
      </trkpt>
      <trkpt lat="43.09715" lon="5.94892">
        <ele>-0.34</ele>
        <time>2019-05-26T11:26:27Z</time>
      </trkpt>
      <trkpt lat="43.09706" lon="5.94904">
        <ele>-0.82</ele>
        <time>2019-05-26T11:26:55Z</time>
      </trkpt>
      <trkpt lat="43.09698" lon="5.9492">
        <ele>-2.27</ele>
        <time>2019-05-26T11:27:26Z</time>
      </trkpt>
      <trkpt lat="43.0969" lon="5.94937">
        <ele>-3.23</ele>
        <time>2019-05-26T11:27:51Z</time>
      </trkpt>
      <trkpt lat="43.09678" lon="5.94957">
        <ele>-2.27</ele>
        <time>2019-05-26T11:28:23Z</time>
      </trkpt>
      <trkpt lat="43.09668" lon="5.94977">
        <ele>-1.3</ele>
        <time>2019-05-26T11:28:50Z</time>
      </trkpt>
      <trkpt lat="43.0966" lon="5.94992">
        <ele>-2.27</ele>
        <time>2019-05-26T11:29:14Z</time>
      </trkpt>
      <trkpt lat="43.0965" lon="5.95005">
        <ele>-1.79</ele>
        <time>2019-05-26T11:29:40Z</time>
      </trkpt>
      <trkpt lat="43.09642" lon="5.95019">
        <ele>-1.79</ele>
        <time>2019-05-26T11:30:03Z</time>
      </trkpt>
      <trkpt lat="43.09633" lon="5.95031">
        <ele>-1.79</ele>
        <time>2019-05-26T11:30:26Z</time>
      </trkpt>
      <trkpt lat="43.09625" lon="5.95044">
        <ele>-1.79</ele>
        <time>2019-05-26T11:30:49Z</time>
      </trkpt>
      <trkpt lat="43.09616" lon="5.95061">
        <ele>-1.79</ele>
        <time>2019-05-26T11:31:13Z</time>
      </trkpt>
      <trkpt lat="43.09601" lon="5.9509">
        <ele>-2.27</ele>
        <time>2019-05-26T11:31:44Z</time>
      </trkpt>
      <trkpt lat="43.09586" lon="5.95116">
        <ele>-2.27</ele>
        <time>2019-05-26T11:32:12Z</time>
      </trkpt>
      <trkpt lat="43.09571" lon="5.9514">
        <ele>-1.79</ele>
        <time>2019-05-26T11:32:38Z</time>
      </trkpt>
      <trkpt lat="43.09555" lon="5.95165">
        <ele>-2.27</ele>
        <time>2019-05-26T11:33:05Z</time>
      </trkpt>
      <trkpt lat="43.09541" lon="5.95191">
        <ele>-2.27</ele>
        <time>2019-05-26T11:33:28Z</time>
      </trkpt>
      <trkpt lat="43.09526" lon="5.95213">
        <ele>-1.3</ele>
        <time>2019-05-26T11:33:51Z</time>
      </trkpt>
      <trkpt lat="43.09508" lon="5.95243">
        <ele>-2.27</ele>
        <time>2019-05-26T11:34:18Z</time>
      </trkpt>
      <trkpt lat="43.09493" lon="5.95265">
        <ele>-1.79</ele>
        <time>2019-05-26T11:34:40Z</time>
      </trkpt>
      <trkpt lat="43.09476" lon="5.95292">
        <ele>-2.27</ele>
        <time>2019-05-26T11:35:05Z</time>
      </trkpt>
      <trkpt lat="43.09459" lon="5.95317">
        <ele>-1.79</ele>
        <time>2019-05-26T11:35:28Z</time>
      </trkpt>
      <trkpt lat="43.09445" lon="5.95338">
        <ele>-1.3</ele>
        <time>2019-05-26T11:35:48Z</time>
      </trkpt>
      <trkpt lat="43.09426" lon="5.95367">
        <ele>-1.79</ele>
        <time>2019-05-26T11:36:14Z</time>
      </trkpt>
      <trkpt lat="43.0941" lon="5.95392">
        <ele>-0.34</ele>
        <time>2019-05-26T11:36:36Z</time>
      </trkpt>
      <trkpt lat="43.09391" lon="5.95424">
        <ele>-0.82</ele>
        <time>2019-05-26T11:37:01Z</time>
      </trkpt>
      <trkpt lat="43.09372" lon="5.95457">
        <ele>-1.79</ele>
        <time>2019-05-26T11:37:26Z</time>
      </trkpt>
      <trkpt lat="43.09356" lon="5.95488">
        <ele>-1.79</ele>
        <time>2019-05-26T11:37:51Z</time>
      </trkpt>
      <trkpt lat="43.0934" lon="5.95518">
        <ele>-1.79</ele>
        <time>2019-05-26T11:38:19Z</time>
      </trkpt>
      <trkpt lat="43.09328" lon="5.9554">
        <ele>-1.79</ele>
        <time>2019-05-26T11:38:43Z</time>
      </trkpt>
      <trkpt lat="43.0932" lon="5.95557">
        <ele>-1.79</ele>
        <time>2019-05-26T11:39:03Z</time>
      </trkpt>
      <trkpt lat="43.09313" lon="5.95571">
        <ele>-1.3</ele>
        <time>2019-05-26T11:39:26Z</time>
      </trkpt>
      <trkpt lat="43.09307" lon="5.95583">
        <ele>-1.3</ele>
        <time>2019-05-26T11:39:46Z</time>
      </trkpt>
      <trkpt lat="43.09299" lon="5.95593">
        <ele>-0.82</ele>
        <time>2019-05-26T11:40:11Z</time>
      </trkpt>
      <trkpt lat="43.09293" lon="5.95603">
        <ele>-0.34</ele>
        <time>2019-05-26T11:40:36Z</time>
      </trkpt>
      <trkpt lat="43.0929" lon="5.95612">
        <ele>-0.34</ele>
        <time>2019-05-26T11:40:59Z</time>
      </trkpt>
      <trkpt lat="43.09288" lon="5.95619">
        <ele>-0.82</ele>
        <time>2019-05-26T11:41:24Z</time>
      </trkpt>
      <trkpt lat="43.09286" lon="5.95625">
        <ele>-0.82</ele>
        <time>2019-05-26T11:41:45Z</time>
      </trkpt>
      <trkpt lat="43.09285" lon="5.9563">
        <ele>-0.34</ele>
        <time>2019-05-26T11:42:03Z</time>
      </trkpt>
      <trkpt lat="43.09283" lon="5.95636">
        <ele>0.14</ele>
        <time>2019-05-26T11:42:20Z</time>
      </trkpt>
      <trkpt lat="43.09281" lon="5.95641">
        <ele>-0.34</ele>
        <time>2019-05-26T11:42:38Z</time>
      </trkpt>
      <trkpt lat="43.0928" lon="5.95644">
        <ele>-0.82</ele>
        <time>2019-05-26T11:42:58Z</time>
      </trkpt>
      <trkpt lat="43.09279" lon="5.95648">
        <ele>-1.3</ele>
        <time>2019-05-26T11:43:18Z</time>
      </trkpt>
      <trkpt lat="43.09278" lon="5.95652">
        <ele>-0.82</ele>
        <time>2019-05-26T11:43:40Z</time>
      </trkpt>
      <trkpt lat="43.09276" lon="5.95658">
        <ele>-0.82</ele>
        <time>2019-05-26T11:44:05Z</time>
      </trkpt>
      <trkpt lat="43.09274" lon="5.95662">
        <ele>-0.82</ele>
        <time>2019-05-26T11:44:25Z</time>
      </trkpt>
      <trkpt lat="43.09271" lon="5.95669">
        <ele>-0.34</ele>
        <time>2019-05-26T11:44:44Z</time>
      </trkpt>
      <trkpt lat="43.09269" lon="5.95672">
        <ele>-0.82</ele>
        <time>2019-05-26T11:45:04Z</time>
      </trkpt>
      <trkpt lat="43.09267" lon="5.95679">
        <ele>0.14</ele>
        <time>2019-05-26T11:45:26Z</time>
      </trkpt>
      <trkpt lat="43.09266" lon="5.95684">
        <ele>1.1</ele>
        <time>2019-05-26T11:45:45Z</time>
      </trkpt>
      <trkpt lat="43.09263" lon="5.95692">
        <ele>1.58</ele>
        <time>2019-05-26T11:46:08Z</time>
      </trkpt>
      <trkpt lat="43.09258" lon="5.95705">
        <ele>0.62</ele>
        <time>2019-05-26T11:46:35Z</time>
      </trkpt>
      <trkpt lat="43.09253" lon="5.95713">
        <ele>0.14</ele>
        <time>2019-05-26T11:47:00Z</time>
      </trkpt>
      <trkpt lat="43.09247" lon="5.95723">
        <ele>-0.34</ele>
        <time>2019-05-26T11:47:29Z</time>
      </trkpt>
      <trkpt lat="43.09242" lon="5.95729">
        <ele>0.62</ele>
        <time>2019-05-26T11:47:58Z</time>
      </trkpt>
      <trkpt lat="43.09236" lon="5.95738">
        <ele>-0.34</ele>
        <time>2019-05-26T11:48:22Z</time>
      </trkpt>
      <trkpt lat="43.09232" lon="5.95744">
        <ele>-1.3</ele>
        <time>2019-05-26T11:48:43Z</time>
      </trkpt>
      <trkpt lat="43.09227" lon="5.95753">
        <ele>-0.34</ele>
        <time>2019-05-26T11:49:08Z</time>
      </trkpt>
      <trkpt lat="43.09223" lon="5.95759">
        <ele>-0.34</ele>
        <time>2019-05-26T11:49:30Z</time>
      </trkpt>
      <trkpt lat="43.09218" lon="5.95768">
        <ele>-0.82</ele>
        <time>2019-05-26T11:49:56Z</time>
      </trkpt>
      <trkpt lat="43.09215" lon="5.95773">
        <ele>-0.82</ele>
        <time>2019-05-26T11:50:20Z</time>
      </trkpt>
      <trkpt lat="43.09212" lon="5.95777">
        <ele>-1.3</ele>
        <time>2019-05-26T11:50:48Z</time>
      </trkpt>
      <trkpt lat="43.09211" lon="5.9578">
        <ele>-1.79</ele>
        <time>2019-05-26T11:51:13Z</time>
      </trkpt>
      <trkpt lat="43.09207" lon="5.95786">
        <ele>-2.75</ele>
        <time>2019-05-26T11:51:35Z</time>
      </trkpt>
      <trkpt lat="43.09203" lon="5.95793">
        <ele>-3.71</ele>
        <time>2019-05-26T11:52:01Z</time>
      </trkpt>
      <trkpt lat="43.09199" lon="5.95801">
        <ele>-4.19</ele>
        <time>2019-05-26T11:52:27Z</time>
      </trkpt>
      <trkpt lat="43.09195" lon="5.9581">
        <ele>-4.19</ele>
        <time>2019-05-26T11:52:53Z</time>
      </trkpt>
      <trkpt lat="43.0919" lon="5.95821">
        <ele>-5.15</ele>
        <time>2019-05-26T11:53:18Z</time>
      </trkpt>
      <trkpt lat="43.09189" lon="5.95829">
        <ele>-5.15</ele>
        <time>2019-05-26T11:53:40Z</time>
      </trkpt>
      <trkpt lat="43.09187" lon="5.95835">
        <ele>-6.11</ele>
        <time>2019-05-26T11:53:58Z</time>
      </trkpt>
      <trkpt lat="43.09182" lon="5.95844">
        <ele>-7.07</ele>
        <time>2019-05-26T11:54:22Z</time>
      </trkpt>
      <trkpt lat="43.09173" lon="5.95857">
        <ele>-7.07</ele>
        <time>2019-05-26T11:54:39Z</time>
      </trkpt>
      <trkpt lat="43.09149" lon="5.95879">
        <ele>-5.63</ele>
        <time>2019-05-26T11:55:02Z</time>
      </trkpt>
      <trkpt lat="43.0913" lon="5.95897">
        <ele>-3.71</ele>
        <time>2019-05-26T11:55:25Z</time>
      </trkpt>
      <trkpt lat="43.09117" lon="5.95912">
        <ele>-2.75</ele>
        <time>2019-05-26T11:55:47Z</time>
      </trkpt>
      <trkpt lat="43.09102" lon="5.95925">
        <ele>-2.27</ele>
        <time>2019-05-26T11:56:12Z</time>
      </trkpt>
      <trkpt lat="43.09089" lon="5.95932">
        <ele>-2.27</ele>
        <time>2019-05-26T11:56:32Z</time>
      </trkpt>
      <trkpt lat="43.09074" lon="5.9594">
        <ele>-2.27</ele>
        <time>2019-05-26T11:56:56Z</time>
      </trkpt>
      <trkpt lat="43.09061" lon="5.95948">
        <ele>-2.75</ele>
        <time>2019-05-26T11:57:15Z</time>
      </trkpt>
      <trkpt lat="43.09047" lon="5.95953">
        <ele>-2.27</ele>
        <time>2019-05-26T11:57:34Z</time>
      </trkpt>
      <trkpt lat="43.09029" lon="5.95958">
        <ele>-1.3</ele>
        <time>2019-05-26T11:57:59Z</time>
      </trkpt>
      <trkpt lat="43.09011" lon="5.95967">
        <ele>-1.3</ele>
        <time>2019-05-26T11:58:24Z</time>
      </trkpt>
      <trkpt lat="43.08999" lon="5.95975">
        <ele>-1.79</ele>
        <time>2019-05-26T11:58:45Z</time>
      </trkpt>
      <trkpt lat="43.08986" lon="5.95985">
        <ele>-1.3</ele>
        <time>2019-05-26T11:59:08Z</time>
      </trkpt>
      <trkpt lat="43.08973" lon="5.95994">
        <ele>-2.27</ele>
        <time>2019-05-26T11:59:31Z</time>
      </trkpt>
      <trkpt lat="43.0896" lon="5.96003">
        <ele>-0.82</ele>
        <time>2019-05-26T11:59:53Z</time>
      </trkpt>
      <trkpt lat="43.08946" lon="5.96014">
        <ele>0.62</ele>
        <time>2019-05-26T12:00:19Z</time>
      </trkpt>
      <trkpt lat="43.08936" lon="5.96023">
        <ele>0.62</ele>
        <time>2019-05-26T12:00:39Z</time>
      </trkpt>
      <trkpt lat="43.08925" lon="5.96032">
        <ele>1.1</ele>
        <time>2019-05-26T12:01:03Z</time>
      </trkpt>
      <trkpt lat="43.08914" lon="5.96044">
        <ele>-0.82</ele>
        <time>2019-05-26T12:01:26Z</time>
      </trkpt>
      <trkpt lat="43.08901" lon="5.96055">
        <ele>-0.34</ele>
        <time>2019-05-26T12:01:46Z</time>
      </trkpt>
      <trkpt lat="43.08886" lon="5.96068">
        <ele>-1.3</ele>
        <time>2019-05-26T12:02:08Z</time>
      </trkpt>
      <trkpt lat="43.08867" lon="5.96081">
        <ele>-1.79</ele>
        <time>2019-05-26T12:02:31Z</time>
      </trkpt>
      <trkpt lat="43.08847" lon="5.96094">
        <ele>-2.27</ele>
        <time>2019-05-26T12:02:54Z</time>
      </trkpt>
      <trkpt lat="43.08831" lon="5.96105">
        <ele>-1.3</ele>
        <time>2019-05-26T12:03:14Z</time>
      </trkpt>
      <trkpt lat="43.08811" lon="5.9612">
        <ele>-1.79</ele>
        <time>2019-05-26T12:03:39Z</time>
      </trkpt>
      <trkpt lat="43.08795" lon="5.96129">
        <ele>-1.3</ele>
        <time>2019-05-26T12:03:59Z</time>
      </trkpt>
      <trkpt lat="43.08782" lon="5.9614">
        <ele>-1.79</ele>
        <time>2019-05-26T12:04:20Z</time>
      </trkpt>
      <trkpt lat="43.08768" lon="5.96152">
        <ele>-2.27</ele>
        <time>2019-05-26T12:04:40Z</time>
      </trkpt>
      <trkpt lat="43.0875" lon="5.96167">
        <ele>-1.3</ele>
        <time>2019-05-26T12:05:05Z</time>
      </trkpt>
      <trkpt lat="43.0873" lon="5.96177">
        <ele>-0.82</ele>
        <time>2019-05-26T12:05:30Z</time>
      </trkpt>
      <trkpt lat="43.08715" lon="5.96184">
        <ele>-0.82</ele>
        <time>2019-05-26T12:05:50Z</time>
      </trkpt>
      <trkpt lat="43.08699" lon="5.96198">
        <ele>-1.79</ele>
        <time>2019-05-26T12:06:16Z</time>
      </trkpt>
      <trkpt lat="43.08682" lon="5.96208">
        <ele>-0.82</ele>
        <time>2019-05-26T12:06:39Z</time>
      </trkpt>
      <trkpt lat="43.08666" lon="5.96217">
        <ele>-1.3</ele>
        <time>2019-05-26T12:07:00Z</time>
      </trkpt>
      <trkpt lat="43.08651" lon="5.96227">
        <ele>-1.3</ele>
        <time>2019-05-26T12:07:22Z</time>
      </trkpt>
      <trkpt lat="43.08635" lon="5.96235">
        <ele>-0.82</ele>
        <time>2019-05-26T12:07:45Z</time>
      </trkpt>
      <trkpt lat="43.08617" lon="5.96243">
        <ele>-0.82</ele>
        <time>2019-05-26T12:08:11Z</time>
      </trkpt>
      <trkpt lat="43.08604" lon="5.96251">
        <ele>-1.3</ele>
        <time>2019-05-26T12:08:33Z</time>
      </trkpt>
      <trkpt lat="43.08589" lon="5.96261">
        <ele>-1.3</ele>
        <time>2019-05-26T12:08:55Z</time>
      </trkpt>
      <trkpt lat="43.08571" lon="5.96269">
        <ele>-0.82</ele>
        <time>2019-05-26T12:09:18Z</time>
      </trkpt>
      <trkpt lat="43.0855" lon="5.96274">
        <ele>-1.3</ele>
        <time>2019-05-26T12:09:41Z</time>
      </trkpt>
      <trkpt lat="43.08532" lon="5.96278">
        <ele>-1.3</ele>
        <time>2019-05-26T12:09:59Z</time>
      </trkpt>
      <trkpt lat="43.0851" lon="5.96277">
        <ele>-0.34</ele>
        <time>2019-05-26T12:10:25Z</time>
      </trkpt>
      <trkpt lat="43.08492" lon="5.9628">
        <ele>-0.82</ele>
        <time>2019-05-26T12:10:46Z</time>
      </trkpt>
      <trkpt lat="43.08473" lon="5.96284">
        <ele>-0.82</ele>
        <time>2019-05-26T12:11:07Z</time>
      </trkpt>
      <trkpt lat="43.0845" lon="5.96285">
        <ele>-0.82</ele>
        <time>2019-05-26T12:11:32Z</time>
      </trkpt>
      <trkpt lat="43.08428" lon="5.96288">
        <ele>-0.82</ele>
        <time>2019-05-26T12:11:54Z</time>
      </trkpt>
      <trkpt lat="43.08405" lon="5.96291">
        <ele>-0.82</ele>
        <time>2019-05-26T12:12:18Z</time>
      </trkpt>
      <trkpt lat="43.08387" lon="5.96296">
        <ele>-1.3</ele>
        <time>2019-05-26T12:12:40Z</time>
      </trkpt>
      <trkpt lat="43.08373" lon="5.963">
        <ele>-1.3</ele>
        <time>2019-05-26T12:12:58Z</time>
      </trkpt>
      <trkpt lat="43.08359" lon="5.96304">
        <ele>-1.79</ele>
        <time>2019-05-26T12:13:16Z</time>
      </trkpt>
      <trkpt lat="43.08343" lon="5.96309">
        <ele>-1.79</ele>
        <time>2019-05-26T12:13:35Z</time>
      </trkpt>
      <trkpt lat="43.08328" lon="5.96314">
        <ele>-1.79</ele>
        <time>2019-05-26T12:13:53Z</time>
      </trkpt>
      <trkpt lat="43.08311" lon="5.96318">
        <ele>-1.79</ele>
        <time>2019-05-26T12:14:13Z</time>
      </trkpt>
      <trkpt lat="43.08289" lon="5.96324">
        <ele>-0.34</ele>
        <time>2019-05-26T12:14:38Z</time>
      </trkpt>
      <trkpt lat="43.08267" lon="5.96329">
        <ele>-0.34</ele>
        <time>2019-05-26T12:15:03Z</time>
      </trkpt>
      <trkpt lat="43.08248" lon="5.96332">
        <ele>-0.34</ele>
        <time>2019-05-26T12:15:25Z</time>
      </trkpt>
      <trkpt lat="43.0823" lon="5.96334">
        <ele>0.14</ele>
        <time>2019-05-26T12:15:48Z</time>
      </trkpt>
      <trkpt lat="43.08218" lon="5.96337">
        <ele>-0.82</ele>
        <time>2019-05-26T12:16:09Z</time>
      </trkpt>
      <trkpt lat="43.08208" lon="5.9634">
        <ele>-0.82</ele>
        <time>2019-05-26T12:16:26Z</time>
      </trkpt>
      <trkpt lat="43.08196" lon="5.96343">
        <ele>-0.34</ele>
        <time>2019-05-26T12:16:45Z</time>
      </trkpt>
      <trkpt lat="43.08186" lon="5.96347">
        <ele>-1.3</ele>
        <time>2019-05-26T12:17:04Z</time>
      </trkpt>
      <trkpt lat="43.08173" lon="5.96351">
        <ele>-0.34</ele>
        <time>2019-05-26T12:17:26Z</time>
      </trkpt>
      <trkpt lat="43.08162" lon="5.96354">
        <ele>0.14</ele>
        <time>2019-05-26T12:17:48Z</time>
      </trkpt>
      <trkpt lat="43.08148" lon="5.96359">
        <ele>1.58</ele>
        <time>2019-05-26T12:18:12Z</time>
      </trkpt>
      <trkpt lat="43.08133" lon="5.96364">
        <ele>-0.34</ele>
        <time>2019-05-26T12:18:33Z</time>
      </trkpt>
      <trkpt lat="43.08117" lon="5.96367">
        <ele>-0.34</ele>
        <time>2019-05-26T12:18:55Z</time>
      </trkpt>
      <trkpt lat="43.08102" lon="5.96372">
        <ele>0.14</ele>
        <time>2019-05-26T12:19:16Z</time>
      </trkpt>
      <trkpt lat="43.08085" lon="5.96376">
        <ele>-0.82</ele>
        <time>2019-05-26T12:19:36Z</time>
      </trkpt>
      <trkpt lat="43.08067" lon="5.96378">
        <ele>-0.82</ele>
        <time>2019-05-26T12:19:59Z</time>
      </trkpt>
      <trkpt lat="43.08049" lon="5.9638">
        <ele>-0.34</ele>
        <time>2019-05-26T12:20:21Z</time>
      </trkpt>
      <trkpt lat="43.08032" lon="5.96386">
        <ele>-0.34</ele>
        <time>2019-05-26T12:20:45Z</time>
      </trkpt>
      <trkpt lat="43.08016" lon="5.96395">
        <ele>-0.82</ele>
        <time>2019-05-26T12:21:08Z</time>
      </trkpt>
      <trkpt lat="43.07999" lon="5.96404">
        <ele>-1.3</ele>
        <time>2019-05-26T12:21:29Z</time>
      </trkpt>
      <trkpt lat="43.07982" lon="5.96413">
        <ele>-2.75</ele>
        <time>2019-05-26T12:21:52Z</time>
      </trkpt>
      <trkpt lat="43.07969" lon="5.96423">
        <ele>-2.75</ele>
        <time>2019-05-26T12:22:13Z</time>
      </trkpt>
      <trkpt lat="43.07957" lon="5.96434">
        <ele>-2.75</ele>
        <time>2019-05-26T12:22:33Z</time>
      </trkpt>
      <trkpt lat="43.07936" lon="5.96448">
        <ele>-1.79</ele>
        <time>2019-05-26T12:23:02Z</time>
      </trkpt>
      <trkpt lat="43.07934" lon="5.9645">
        <ele>-1.79</ele>
        <time>2019-05-26T12:23:04Z</time>
      </trkpt>
      <trkpt lat="43.07912" lon="5.9646">
        <ele>-1.3</ele>
        <time>2019-05-26T12:23:29Z</time>
      </trkpt>
      <trkpt lat="43.07906" lon="5.96448">
        <ele>-0.34</ele>
        <time>2019-05-26T12:23:48Z</time>
      </trkpt>
      <trkpt lat="43.07904" lon="5.96428">
        <ele>-1.3</ele>
        <time>2019-05-26T12:24:08Z</time>
      </trkpt>
      <trkpt lat="43.079" lon="5.9641">
        <ele>-0.82</ele>
        <time>2019-05-26T12:24:27Z</time>
      </trkpt>
      <trkpt lat="43.07898" lon="5.96394">
        <ele>-0.82</ele>
        <time>2019-05-26T12:24:45Z</time>
      </trkpt>
      <trkpt lat="43.07897" lon="5.96375">
        <ele>-0.34</ele>
        <time>2019-05-26T12:25:04Z</time>
      </trkpt>
      <trkpt lat="43.07894" lon="5.96356">
        <ele>-0.82</ele>
        <time>2019-05-26T12:25:22Z</time>
      </trkpt>
      <trkpt lat="43.07891" lon="5.96332">
        <ele>0.62</ele>
        <time>2019-05-26T12:25:45Z</time>
      </trkpt>
      <trkpt lat="43.07891" lon="5.9631">
        <ele>0.62</ele>
        <time>2019-05-26T12:26:04Z</time>
      </trkpt>
      <trkpt lat="43.07891" lon="5.96309">
        <ele>0.62</ele>
        <time>2019-05-26T12:26:05Z</time>
      </trkpt>
      <trkpt lat="43.0789" lon="5.96283">
        <ele>0.62</ele>
        <time>2019-05-26T12:26:25Z</time>
      </trkpt>
      <trkpt lat="43.07889" lon="5.96257">
        <ele>1.58</ele>
        <time>2019-05-26T12:26:44Z</time>
      </trkpt>
      <trkpt lat="43.07882" lon="5.96239">
        <ele>1.1</ele>
        <time>2019-05-26T12:27:02Z</time>
      </trkpt>
      <trkpt lat="43.07867" lon="5.96241">
        <ele>1.1</ele>
        <time>2019-05-26T12:27:22Z</time>
      </trkpt>
      <trkpt lat="43.07858" lon="5.96243">
        <ele>1.58</ele>
        <time>2019-05-26T12:27:32Z</time>
      </trkpt>
      <trkpt lat="43.07832" lon="5.96246">
        <ele>1.58</ele>
        <time>2019-05-26T12:27:55Z</time>
      </trkpt>
      <trkpt lat="43.07807" lon="5.9625">
        <ele>2.06</ele>
        <time>2019-05-26T12:28:14Z</time>
      </trkpt>
      <trkpt lat="43.07779" lon="5.96252">
        <ele>2.54</ele>
        <time>2019-05-26T12:28:33Z</time>
      </trkpt>
      <trkpt lat="43.07752" lon="5.96254">
        <ele>2.06</ele>
        <time>2019-05-26T12:28:51Z</time>
      </trkpt>
      <trkpt lat="43.07721" lon="5.96257">
        <ele>2.54</ele>
        <time>2019-05-26T12:29:09Z</time>
      </trkpt>
      <trkpt lat="43.07682" lon="5.9626">
        <ele>2.06</ele>
        <time>2019-05-26T12:29:30Z</time>
      </trkpt>
      <trkpt lat="43.07648" lon="5.96263">
        <ele>2.06</ele>
        <time>2019-05-26T12:29:49Z</time>
      </trkpt>
      <trkpt lat="43.07615" lon="5.96267">
        <ele>2.54</ele>
        <time>2019-05-26T12:30:07Z</time>
      </trkpt>
      <trkpt lat="43.0758" lon="5.96272">
        <ele>3.5</ele>
        <time>2019-05-26T12:30:26Z</time>
      </trkpt>
      <trkpt lat="43.07545" lon="5.96279">
        <ele>3.5</ele>
        <time>2019-05-26T12:30:45Z</time>
      </trkpt>
      <trkpt lat="43.07509" lon="5.96285">
        <ele>3.02</ele>
        <time>2019-05-26T12:31:03Z</time>
      </trkpt>
      <trkpt lat="43.07465" lon="5.96295">
        <ele>3.02</ele>
        <time>2019-05-26T12:31:24Z</time>
      </trkpt>
      <trkpt lat="43.07428" lon="5.96301">
        <ele>2.54</ele>
        <time>2019-05-26T12:31:40Z</time>
      </trkpt>
      <trkpt lat="43.07387" lon="5.96305">
        <ele>1.1</ele>
        <time>2019-05-26T12:31:58Z</time>
      </trkpt>
      <trkpt lat="43.07338" lon="5.9631">
        <ele>0.14</ele>
        <time>2019-05-26T12:32:19Z</time>
      </trkpt>
      <trkpt lat="43.07292" lon="5.96311">
        <ele>0.14</ele>
        <time>2019-05-26T12:32:39Z</time>
      </trkpt>
      <trkpt lat="43.07246" lon="5.96313">
        <ele>0.62</ele>
        <time>2019-05-26T12:32:59Z</time>
      </trkpt>
      <trkpt lat="43.07206" lon="5.96313">
        <ele>0.62</ele>
        <time>2019-05-26T12:33:17Z</time>
      </trkpt>
      <trkpt lat="43.07167" lon="5.96313">
        <ele>0.62</ele>
        <time>2019-05-26T12:33:35Z</time>
      </trkpt>
      <trkpt lat="43.07127" lon="5.96312">
        <ele>0.14</ele>
        <time>2019-05-26T12:33:54Z</time>
      </trkpt>
      <trkpt lat="43.07089" lon="5.9631">
        <ele>-0.34</ele>
        <time>2019-05-26T12:34:12Z</time>
      </trkpt>
      <trkpt lat="43.07051" lon="5.96309">
        <ele>-1.79</ele>
        <time>2019-05-26T12:34:30Z</time>
      </trkpt>
      <trkpt lat="43.07013" lon="5.96305">
        <ele>-1.79</ele>
        <time>2019-05-26T12:34:48Z</time>
      </trkpt>
      <trkpt lat="43.06974" lon="5.963">
        <ele>-2.27</ele>
        <time>2019-05-26T12:35:07Z</time>
      </trkpt>
      <trkpt lat="43.06944" lon="5.96296">
        <ele>-2.27</ele>
        <time>2019-05-26T12:35:22Z</time>
      </trkpt>
      <trkpt lat="43.06913" lon="5.96293">
        <ele>-1.79</ele>
        <time>2019-05-26T12:35:37Z</time>
      </trkpt>
      <trkpt lat="43.06899" lon="5.96285">
        <ele>-1.3</ele>
        <time>2019-05-26T12:35:47Z</time>
      </trkpt>
      <trkpt lat="43.069" lon="5.96272">
        <ele>-1.3</ele>
        <time>2019-05-26T12:35:55Z</time>
      </trkpt>
      <trkpt lat="43.06902" lon="5.96247">
        <ele>-1.79</ele>
        <time>2019-05-26T12:36:11Z</time>
      </trkpt>
      <trkpt lat="43.06906" lon="5.96217">
        <ele>-3.23</ele>
        <time>2019-05-26T12:36:29Z</time>
      </trkpt>
      <trkpt lat="43.06915" lon="5.96178">
        <ele>-5.15</ele>
        <time>2019-05-26T12:36:50Z</time>
      </trkpt>
      <trkpt lat="43.06924" lon="5.96146">
        <ele>-4.67</ele>
        <time>2019-05-26T12:37:06Z</time>
      </trkpt>
      <trkpt lat="43.06933" lon="5.96116">
        <ele>-3.71</ele>
        <time>2019-05-26T12:37:20Z</time>
      </trkpt>
      <trkpt lat="43.06943" lon="5.96079">
        <ele>-4.19</ele>
        <time>2019-05-26T12:37:35Z</time>
      </trkpt>
      <trkpt lat="43.06954" lon="5.9604">
        <ele>-5.15</ele>
        <time>2019-05-26T12:37:51Z</time>
      </trkpt>
      <trkpt lat="43.06966" lon="5.95996">
        <ele>-4.19</ele>
        <time>2019-05-26T12:38:08Z</time>
      </trkpt>
      <trkpt lat="43.06978" lon="5.95946">
        <ele>-4.67</ele>
        <time>2019-05-26T12:38:27Z</time>
      </trkpt>
      <trkpt lat="43.06989" lon="5.959">
        <ele>-4.19</ele>
        <time>2019-05-26T12:38:45Z</time>
      </trkpt>
      <trkpt lat="43.07" lon="5.95859">
        <ele>-2.75</ele>
        <time>2019-05-26T12:39:01Z</time>
      </trkpt>
      <trkpt lat="43.07012" lon="5.95819">
        <ele>-4.19</ele>
        <time>2019-05-26T12:39:17Z</time>
      </trkpt>
      <trkpt lat="43.0703" lon="5.95772">
        <ele>-3.71</ele>
        <time>2019-05-26T12:39:35Z</time>
      </trkpt>
      <trkpt lat="43.07045" lon="5.95734">
        <ele>-3.71</ele>
        <time>2019-05-26T12:39:49Z</time>
      </trkpt>
      <trkpt lat="43.07062" lon="5.95684">
        <ele>-3.71</ele>
        <time>2019-05-26T12:40:06Z</time>
      </trkpt>
      <trkpt lat="43.07053" lon="5.95665">
        <ele>-2.75</ele>
        <time>2019-05-26T12:40:16Z</time>
      </trkpt>
      <trkpt lat="43.07023" lon="5.95661">
        <ele>-2.27</ele>
        <time>2019-05-26T12:40:34Z</time>
      </trkpt>
      <trkpt lat="43.06995" lon="5.95652">
        <ele>-2.75</ele>
        <time>2019-05-26T12:40:51Z</time>
      </trkpt>
      <trkpt lat="43.0696" lon="5.95639">
        <ele>-3.71</ele>
        <time>2019-05-26T12:41:12Z</time>
      </trkpt>
      <trkpt lat="43.06921" lon="5.95629">
        <ele>-3.23</ele>
        <time>2019-05-26T12:41:33Z</time>
      </trkpt>
      <trkpt lat="43.06879" lon="5.95622">
        <ele>-3.71</ele>
        <time>2019-05-26T12:41:55Z</time>
      </trkpt>
      <trkpt lat="43.06844" lon="5.95616">
        <ele>-3.71</ele>
        <time>2019-05-26T12:42:13Z</time>
      </trkpt>
      <trkpt lat="43.06806" lon="5.95614">
        <ele>-3.23</ele>
        <time>2019-05-26T12:42:32Z</time>
      </trkpt>
      <trkpt lat="43.06767" lon="5.95607">
        <ele>-3.23</ele>
        <time>2019-05-26T12:42:50Z</time>
      </trkpt>
      <trkpt lat="43.06728" lon="5.95593">
        <ele>-3.23</ele>
        <time>2019-05-26T12:43:09Z</time>
      </trkpt>
      <trkpt lat="43.06689" lon="5.95577">
        <ele>-4.19</ele>
        <time>2019-05-26T12:43:28Z</time>
      </trkpt>
      <trkpt lat="43.06657" lon="5.95566">
        <ele>-4.67</ele>
        <time>2019-05-26T12:43:44Z</time>
      </trkpt>
      <trkpt lat="43.06616" lon="5.95558">
        <ele>-3.71</ele>
        <time>2019-05-26T12:44:03Z</time>
      </trkpt>
      <trkpt lat="43.06583" lon="5.95555">
        <ele>-3.71</ele>
        <time>2019-05-26T12:44:17Z</time>
      </trkpt>
      <trkpt lat="43.06542" lon="5.95542">
        <ele>-3.71</ele>
        <time>2019-05-26T12:44:34Z</time>
      </trkpt>
      <trkpt lat="43.06495" lon="5.95524">
        <ele>-3.71</ele>
        <time>2019-05-26T12:44:55Z</time>
      </trkpt>
      <trkpt lat="43.06465" lon="5.95511">
        <ele>-4.19</ele>
        <time>2019-05-26T12:45:10Z</time>
      </trkpt>
      <trkpt lat="43.06428" lon="5.95497">
        <ele>-4.67</ele>
        <time>2019-05-26T12:45:30Z</time>
      </trkpt>
      <trkpt lat="43.06395" lon="5.95488">
        <ele>-4.67</ele>
        <time>2019-05-26T12:45:48Z</time>
      </trkpt>
      <trkpt lat="43.06361" lon="5.95478">
        <ele>-4.67</ele>
        <time>2019-05-26T12:46:06Z</time>
      </trkpt>
      <trkpt lat="43.06323" lon="5.95462">
        <ele>-5.15</ele>
        <time>2019-05-26T12:46:24Z</time>
      </trkpt>
      <trkpt lat="43.06282" lon="5.95445">
        <ele>-5.63</ele>
        <time>2019-05-26T12:46:43Z</time>
      </trkpt>
      <trkpt lat="43.06245" lon="5.95432">
        <ele>-5.63</ele>
        <time>2019-05-26T12:47:00Z</time>
      </trkpt>
      <trkpt lat="43.06201" lon="5.95415">
        <ele>-5.63</ele>
        <time>2019-05-26T12:47:20Z</time>
      </trkpt>
      <trkpt lat="43.06158" lon="5.95394">
        <ele>-5.15</ele>
        <time>2019-05-26T12:47:41Z</time>
      </trkpt>
      <trkpt lat="43.06125" lon="5.9538">
        <ele>-5.15</ele>
        <time>2019-05-26T12:47:58Z</time>
      </trkpt>
      <trkpt lat="43.06096" lon="5.95365">
        <ele>-5.15</ele>
        <time>2019-05-26T12:48:14Z</time>
      </trkpt>
      <trkpt lat="43.06069" lon="5.95351">
        <ele>-5.15</ele>
        <time>2019-05-26T12:48:30Z</time>
      </trkpt>
      <trkpt lat="43.06067" lon="5.9533">
        <ele>-5.63</ele>
        <time>2019-05-26T12:48:45Z</time>
      </trkpt>
      <trkpt lat="43.06076" lon="5.95302">
        <ele>-3.23</ele>
        <time>2019-05-26T12:49:03Z</time>
      </trkpt>
      <trkpt lat="43.06087" lon="5.95276">
        <ele>-2.75</ele>
        <time>2019-05-26T12:49:19Z</time>
      </trkpt>
      <trkpt lat="43.06095" lon="5.95248">
        <ele>-2.27</ele>
        <time>2019-05-26T12:49:34Z</time>
      </trkpt>
      <trkpt lat="43.06105" lon="5.95217">
        <ele>-1.3</ele>
        <time>2019-05-26T12:49:51Z</time>
      </trkpt>
      <trkpt lat="43.06118" lon="5.95186">
        <ele>-2.27</ele>
        <time>2019-05-26T12:50:07Z</time>
      </trkpt>
      <trkpt lat="43.06129" lon="5.9515">
        <ele>-1.79</ele>
        <time>2019-05-26T12:50:24Z</time>
      </trkpt>
      <trkpt lat="43.06141" lon="5.95121">
        <ele>-2.27</ele>
        <time>2019-05-26T12:50:39Z</time>
      </trkpt>
      <trkpt lat="43.06158" lon="5.95084">
        <ele>-2.27</ele>
        <time>2019-05-26T12:50:57Z</time>
      </trkpt>
      <trkpt lat="43.06177" lon="5.95044">
        <ele>-3.71</ele>
        <time>2019-05-26T12:51:15Z</time>
      </trkpt>
      <trkpt lat="43.06198" lon="5.95002">
        <ele>-4.67</ele>
        <time>2019-05-26T12:51:34Z</time>
      </trkpt>
      <trkpt lat="43.06212" lon="5.94971">
        <ele>-4.67</ele>
        <time>2019-05-26T12:51:48Z</time>
      </trkpt>
      <trkpt lat="43.06229" lon="5.94933">
        <ele>-3.23</ele>
        <time>2019-05-26T12:52:05Z</time>
      </trkpt>
      <trkpt lat="43.06242" lon="5.94895">
        <ele>-2.75</ele>
        <time>2019-05-26T12:52:23Z</time>
      </trkpt>
      <trkpt lat="43.06255" lon="5.94861">
        <ele>-2.75</ele>
        <time>2019-05-26T12:52:39Z</time>
      </trkpt>
      <trkpt lat="43.0627" lon="5.94823">
        <ele>-2.75</ele>
        <time>2019-05-26T12:52:57Z</time>
      </trkpt>
      <trkpt lat="43.06285" lon="5.94787">
        <ele>-2.27</ele>
        <time>2019-05-26T12:53:15Z</time>
      </trkpt>
      <trkpt lat="43.063" lon="5.9475">
        <ele>-2.27</ele>
        <time>2019-05-26T12:53:32Z</time>
      </trkpt>
      <trkpt lat="43.06315" lon="5.94711">
        <ele>-2.75</ele>
        <time>2019-05-26T12:53:50Z</time>
      </trkpt>
      <trkpt lat="43.06328" lon="5.94672">
        <ele>-2.27</ele>
        <time>2019-05-26T12:54:09Z</time>
      </trkpt>
      <trkpt lat="43.06343" lon="5.94636">
        <ele>-3.23</ele>
        <time>2019-05-26T12:54:26Z</time>
      </trkpt>
      <trkpt lat="43.0636" lon="5.94597">
        <ele>-2.75</ele>
        <time>2019-05-26T12:54:45Z</time>
      </trkpt>
      <trkpt lat="43.06375" lon="5.9456">
        <ele>-2.27</ele>
        <time>2019-05-26T12:55:02Z</time>
      </trkpt>
      <trkpt lat="43.06392" lon="5.94522">
        <ele>-2.75</ele>
        <time>2019-05-26T12:55:20Z</time>
      </trkpt>
      <trkpt lat="43.06408" lon="5.94484">
        <ele>-2.27</ele>
        <time>2019-05-26T12:55:38Z</time>
      </trkpt>
      <trkpt lat="43.06427" lon="5.94443">
        <ele>-3.23</ele>
        <time>2019-05-26T12:55:56Z</time>
      </trkpt>
      <trkpt lat="43.06444" lon="5.94405">
        <ele>-2.27</ele>
        <time>2019-05-26T12:56:12Z</time>
      </trkpt>
      <trkpt lat="43.06461" lon="5.94369">
        <ele>-4.19</ele>
        <time>2019-05-26T12:56:27Z</time>
      </trkpt>
      <trkpt lat="43.06483" lon="5.94317">
        <ele>-3.71</ele>
        <time>2019-05-26T12:56:49Z</time>
      </trkpt>
      <trkpt lat="43.06499" lon="5.94281">
        <ele>-3.71</ele>
        <time>2019-05-26T12:57:04Z</time>
      </trkpt>
      <trkpt lat="43.06519" lon="5.94238">
        <ele>-3.71</ele>
        <time>2019-05-26T12:57:23Z</time>
      </trkpt>
      <trkpt lat="43.06534" lon="5.94203">
        <ele>-3.23</ele>
        <time>2019-05-26T12:57:38Z</time>
      </trkpt>
      <trkpt lat="43.06552" lon="5.94167">
        <ele>-3.23</ele>
        <time>2019-05-26T12:57:54Z</time>
      </trkpt>
      <trkpt lat="43.06569" lon="5.9413">
        <ele>-4.19</ele>
        <time>2019-05-26T12:58:11Z</time>
      </trkpt>
      <trkpt lat="43.06589" lon="5.94091">
        <ele>-4.19</ele>
        <time>2019-05-26T12:58:30Z</time>
      </trkpt>
      <trkpt lat="43.06602" lon="5.94055">
        <ele>-4.19</ele>
        <time>2019-05-26T12:58:47Z</time>
      </trkpt>
      <trkpt lat="43.06618" lon="5.94021">
        <ele>-4.67</ele>
        <time>2019-05-26T12:59:03Z</time>
      </trkpt>
      <trkpt lat="43.06634" lon="5.93992">
        <ele>-3.71</ele>
        <time>2019-05-26T12:59:16Z</time>
      </trkpt>
      <trkpt lat="43.06656" lon="5.9395">
        <ele>-3.71</ele>
        <time>2019-05-26T12:59:34Z</time>
      </trkpt>
      <trkpt lat="43.06677" lon="5.93905">
        <ele>-3.71</ele>
        <time>2019-05-26T12:59:52Z</time>
      </trkpt>
      <trkpt lat="43.06691" lon="5.93872">
        <ele>-3.71</ele>
        <time>2019-05-26T13:00:05Z</time>
      </trkpt>
      <trkpt lat="43.06708" lon="5.93832">
        <ele>-2.75</ele>
        <time>2019-05-26T13:00:20Z</time>
      </trkpt>
      <trkpt lat="43.06728" lon="5.93781">
        <ele>-2.75</ele>
        <time>2019-05-26T13:00:38Z</time>
      </trkpt>
      <trkpt lat="43.06745" lon="5.93727">
        <ele>-3.23</ele>
        <time>2019-05-26T13:00:57Z</time>
      </trkpt>
      <trkpt lat="43.06758" lon="5.93681">
        <ele>-4.67</ele>
        <time>2019-05-26T13:01:13Z</time>
      </trkpt>
      <trkpt lat="43.0677" lon="5.93633">
        <ele>-4.67</ele>
        <time>2019-05-26T13:01:31Z</time>
      </trkpt>
      <trkpt lat="43.06784" lon="5.93592">
        <ele>-4.19</ele>
        <time>2019-05-26T13:01:49Z</time>
      </trkpt>
      <trkpt lat="43.06808" lon="5.93547">
        <ele>-3.23</ele>
        <time>2019-05-26T13:02:09Z</time>
      </trkpt>
      <trkpt lat="43.06829" lon="5.93499">
        <ele>-2.75</ele>
        <time>2019-05-26T13:02:26Z</time>
      </trkpt>
      <trkpt lat="43.06848" lon="5.93443">
        <ele>-1.3</ele>
        <time>2019-05-26T13:02:44Z</time>
      </trkpt>
      <trkpt lat="43.06863" lon="5.93392">
        <ele>-1.79</ele>
        <time>2019-05-26T13:03:00Z</time>
      </trkpt>
      <trkpt lat="43.06873" lon="5.93354">
        <ele>-3.23</ele>
        <time>2019-05-26T13:03:12Z</time>
      </trkpt>
      <trkpt lat="43.06883" lon="5.93313">
        <ele>-2.75</ele>
        <time>2019-05-26T13:03:25Z</time>
      </trkpt>
      <trkpt lat="43.06897" lon="5.93263">
        <ele>-3.71</ele>
        <time>2019-05-26T13:03:41Z</time>
      </trkpt>
      <trkpt lat="43.06915" lon="5.93202">
        <ele>-4.19</ele>
        <time>2019-05-26T13:04:00Z</time>
      </trkpt>
      <trkpt lat="43.06934" lon="5.93143">
        <ele>-3.23</ele>
        <time>2019-05-26T13:04:19Z</time>
      </trkpt>
      <trkpt lat="43.06948" lon="5.93096">
        <ele>-3.23</ele>
        <time>2019-05-26T13:04:34Z</time>
      </trkpt>
      <trkpt lat="43.06928" lon="5.93086">
        <ele>-2.27</ele>
        <time>2019-05-26T13:04:47Z</time>
      </trkpt>
      <trkpt lat="43.06895" lon="5.93078">
        <ele>-1.79</ele>
        <time>2019-05-26T13:05:08Z</time>
      </trkpt>
      <trkpt lat="43.06855" lon="5.93069">
        <ele>-1.79</ele>
        <time>2019-05-26T13:05:30Z</time>
      </trkpt>
      <trkpt lat="43.06826" lon="5.93067">
        <ele>-2.27</ele>
        <time>2019-05-26T13:05:46Z</time>
      </trkpt>
      <trkpt lat="43.06796" lon="5.93065">
        <ele>-3.71</ele>
        <time>2019-05-26T13:06:02Z</time>
      </trkpt>
      <trkpt lat="43.06765" lon="5.93066">
        <ele>-3.23</ele>
        <time>2019-05-26T13:06:18Z</time>
      </trkpt>
      <trkpt lat="43.06725" lon="5.93065">
        <ele>-3.71</ele>
        <time>2019-05-26T13:06:37Z</time>
      </trkpt>
      <trkpt lat="43.06695" lon="5.93061">
        <ele>-4.67</ele>
        <time>2019-05-26T13:06:52Z</time>
      </trkpt>
      <trkpt lat="43.06667" lon="5.93062">
        <ele>-3.71</ele>
        <time>2019-05-26T13:07:07Z</time>
      </trkpt>
      <trkpt lat="43.06637" lon="5.93061">
        <ele>-2.75</ele>
        <time>2019-05-26T13:07:24Z</time>
      </trkpt>
      <trkpt lat="43.06606" lon="5.93063">
        <ele>-1.79</ele>
        <time>2019-05-26T13:07:41Z</time>
      </trkpt>
      <trkpt lat="43.06578" lon="5.93064">
        <ele>-1.79</ele>
        <time>2019-05-26T13:07:57Z</time>
      </trkpt>
      <trkpt lat="43.06548" lon="5.93067">
        <ele>-2.27</ele>
        <time>2019-05-26T13:08:14Z</time>
      </trkpt>
      <trkpt lat="43.06517" lon="5.93074">
        <ele>-3.23</ele>
        <time>2019-05-26T13:08:31Z</time>
      </trkpt>
      <trkpt lat="43.06488" lon="5.93079">
        <ele>-3.71</ele>
        <time>2019-05-26T13:08:47Z</time>
      </trkpt>
      <trkpt lat="43.06461" lon="5.93084">
        <ele>-3.71</ele>
        <time>2019-05-26T13:09:02Z</time>
      </trkpt>
      <trkpt lat="43.06436" lon="5.93088">
        <ele>-3.23</ele>
        <time>2019-05-26T13:09:16Z</time>
      </trkpt>
      <trkpt lat="43.064" lon="5.93095">
        <ele>-3.71</ele>
        <time>2019-05-26T13:09:35Z</time>
      </trkpt>
      <trkpt lat="43.06369" lon="5.93098">
        <ele>-1.79</ele>
        <time>2019-05-26T13:09:51Z</time>
      </trkpt>
      <trkpt lat="43.06337" lon="5.93105">
        <ele>-1.3</ele>
        <time>2019-05-26T13:10:08Z</time>
      </trkpt>
      <trkpt lat="43.06294" lon="5.93112">
        <ele>-1.3</ele>
        <time>2019-05-26T13:10:28Z</time>
      </trkpt>
      <trkpt lat="43.06256" lon="5.93117">
        <ele>-1.3</ele>
        <time>2019-05-26T13:10:44Z</time>
      </trkpt>
      <trkpt lat="43.06222" lon="5.93121">
        <ele>-0.34</ele>
        <time>2019-05-26T13:10:58Z</time>
      </trkpt>
      <trkpt lat="43.06181" lon="5.93125">
        <ele>0.62</ele>
        <time>2019-05-26T13:11:14Z</time>
      </trkpt>
      <trkpt lat="43.06136" lon="5.93123">
        <ele>-0.82</ele>
        <time>2019-05-26T13:11:31Z</time>
      </trkpt>
      <trkpt lat="43.06093" lon="5.9312">
        <ele>-1.79</ele>
        <time>2019-05-26T13:11:48Z</time>
      </trkpt>
      <trkpt lat="43.06042" lon="5.93119">
        <ele>-1.79</ele>
        <time>2019-05-26T13:12:09Z</time>
      </trkpt>
      <trkpt lat="43.06016" lon="5.93115">
        <ele>-1.79</ele>
        <time>2019-05-26T13:12:21Z</time>
      </trkpt>
      <trkpt lat="43.06018" lon="5.93105">
        <ele>-1.79</ele>
        <time>2019-05-26T13:12:27Z</time>
      </trkpt>
      <trkpt lat="43.06028" lon="5.93076">
        <ele>-2.75</ele>
        <time>2019-05-26T13:12:42Z</time>
      </trkpt>
      <trkpt lat="43.06038" lon="5.93042">
        <ele>-3.23</ele>
        <time>2019-05-26T13:12:56Z</time>
      </trkpt>
      <trkpt lat="43.0605" lon="5.92993">
        <ele>-4.67</ele>
        <time>2019-05-26T13:13:14Z</time>
      </trkpt>
      <trkpt lat="43.06059" lon="5.92947">
        <ele>-4.67</ele>
        <time>2019-05-26T13:13:31Z</time>
      </trkpt>
      <trkpt lat="43.06069" lon="5.92902">
        <ele>-4.67</ele>
        <time>2019-05-26T13:13:47Z</time>
      </trkpt>
      <trkpt lat="43.0608" lon="5.9285">
        <ele>-4.67</ele>
        <time>2019-05-26T13:14:06Z</time>
      </trkpt>
      <trkpt lat="43.06088" lon="5.92809">
        <ele>-5.15</ele>
        <time>2019-05-26T13:14:21Z</time>
      </trkpt>
      <trkpt lat="43.06097" lon="5.92761">
        <ele>-4.67</ele>
        <time>2019-05-26T13:14:38Z</time>
      </trkpt>
      <trkpt lat="43.06106" lon="5.9271">
        <ele>-5.15</ele>
        <time>2019-05-26T13:14:56Z</time>
      </trkpt>
      <trkpt lat="43.06117" lon="5.92656">
        <ele>-5.63</ele>
        <time>2019-05-26T13:15:15Z</time>
      </trkpt>
      <trkpt lat="43.06126" lon="5.92607">
        <ele>-4.67</ele>
        <time>2019-05-26T13:15:32Z</time>
      </trkpt>
      <trkpt lat="43.06131" lon="5.92568">
        <ele>-4.67</ele>
        <time>2019-05-26T13:15:46Z</time>
      </trkpt>
      <trkpt lat="43.06139" lon="5.9252">
        <ele>-4.19</ele>
        <time>2019-05-26T13:16:04Z</time>
      </trkpt>
      <trkpt lat="43.06146" lon="5.9248">
        <ele>-4.67</ele>
        <time>2019-05-26T13:16:19Z</time>
      </trkpt>
      <trkpt lat="43.06153" lon="5.92443">
        <ele>-4.67</ele>
        <time>2019-05-26T13:16:33Z</time>
      </trkpt>
      <trkpt lat="43.06159" lon="5.92409">
        <ele>-5.15</ele>
        <time>2019-05-26T13:16:46Z</time>
      </trkpt>
      <trkpt lat="43.06167" lon="5.92363">
        <ele>-4.67</ele>
        <time>2019-05-26T13:17:03Z</time>
      </trkpt>
      <trkpt lat="43.06173" lon="5.92329">
        <ele>-4.67</ele>
        <time>2019-05-26T13:17:16Z</time>
      </trkpt>
      <trkpt lat="43.06179" lon="5.92295">
        <ele>-4.67</ele>
        <time>2019-05-26T13:17:30Z</time>
      </trkpt>
      <trkpt lat="43.06188" lon="5.92256">
        <ele>-4.19</ele>
        <time>2019-05-26T13:17:46Z</time>
      </trkpt>
      <trkpt lat="43.06195" lon="5.92219">
        <ele>-5.15</ele>
        <time>2019-05-26T13:18:02Z</time>
      </trkpt>
      <trkpt lat="43.06202" lon="5.92182">
        <ele>-4.19</ele>
        <time>2019-05-26T13:18:19Z</time>
      </trkpt>
      <trkpt lat="43.0621" lon="5.92146">
        <ele>-4.19</ele>
        <time>2019-05-26T13:18:36Z</time>
      </trkpt>
      <trkpt lat="43.06219" lon="5.92101">
        <ele>-4.19</ele>
        <time>2019-05-26T13:18:56Z</time>
      </trkpt>
      <trkpt lat="43.06228" lon="5.92063">
        <ele>-3.71</ele>
        <time>2019-05-26T13:19:12Z</time>
      </trkpt>
      <trkpt lat="43.06239" lon="5.92015">
        <ele>-4.67</ele>
        <time>2019-05-26T13:19:31Z</time>
      </trkpt>
      <trkpt lat="43.0625" lon="5.9197">
        <ele>-3.71</ele>
        <time>2019-05-26T13:19:49Z</time>
      </trkpt>
      <trkpt lat="43.06264" lon="5.91917">
        <ele>-3.23</ele>
        <time>2019-05-26T13:20:10Z</time>
      </trkpt>
      <trkpt lat="43.06276" lon="5.91874">
        <ele>-2.75</ele>
        <time>2019-05-26T13:20:27Z</time>
      </trkpt>
      <trkpt lat="43.06284" lon="5.9184">
        <ele>-3.23</ele>
        <time>2019-05-26T13:20:42Z</time>
      </trkpt>
      <trkpt lat="43.06298" lon="5.91796">
        <ele>-3.23</ele>
        <time>2019-05-26T13:21:02Z</time>
      </trkpt>
      <trkpt lat="43.06309" lon="5.91758">
        <ele>-3.23</ele>
        <time>2019-05-26T13:21:19Z</time>
      </trkpt>
      <trkpt lat="43.06323" lon="5.9171">
        <ele>-3.23</ele>
        <time>2019-05-26T13:21:39Z</time>
      </trkpt>
      <trkpt lat="43.06333" lon="5.91663">
        <ele>-3.23</ele>
        <time>2019-05-26T13:21:58Z</time>
      </trkpt>
      <trkpt lat="43.06342" lon="5.91618">
        <ele>-3.23</ele>
        <time>2019-05-26T13:22:18Z</time>
      </trkpt>
      <trkpt lat="43.06351" lon="5.91575">
        <ele>-2.27</ele>
        <time>2019-05-26T13:22:38Z</time>
      </trkpt>
      <trkpt lat="43.0636" lon="5.9153">
        <ele>-2.75</ele>
        <time>2019-05-26T13:22:59Z</time>
      </trkpt>
      <trkpt lat="43.06366" lon="5.91498">
        <ele>-3.23</ele>
        <time>2019-05-26T13:23:14Z</time>
      </trkpt>
      <trkpt lat="43.06373" lon="5.91463">
        <ele>-2.75</ele>
        <time>2019-05-26T13:23:30Z</time>
      </trkpt>
      <trkpt lat="43.0638" lon="5.91426">
        <ele>-3.71</ele>
        <time>2019-05-26T13:23:48Z</time>
      </trkpt>
      <trkpt lat="43.06387" lon="5.91393">
        <ele>-3.23</ele>
        <time>2019-05-26T13:24:05Z</time>
      </trkpt>
      <trkpt lat="43.06393" lon="5.91362">
        <ele>-3.23</ele>
        <time>2019-05-26T13:24:21Z</time>
      </trkpt>
      <trkpt lat="43.06399" lon="5.9133">
        <ele>-3.23</ele>
        <time>2019-05-26T13:24:40Z</time>
      </trkpt>
      <trkpt lat="43.06405" lon="5.913">
        <ele>-2.75</ele>
        <time>2019-05-26T13:24:58Z</time>
      </trkpt>
      <trkpt lat="43.0641" lon="5.9127">
        <ele>-3.23</ele>
        <time>2019-05-26T13:25:17Z</time>
      </trkpt>
      <trkpt lat="43.06416" lon="5.91245">
        <ele>-2.75</ele>
        <time>2019-05-26T13:25:33Z</time>
      </trkpt>
      <trkpt lat="43.06421" lon="5.91219">
        <ele>-3.23</ele>
        <time>2019-05-26T13:25:49Z</time>
      </trkpt>
      <trkpt lat="43.06425" lon="5.91195">
        <ele>-3.23</ele>
        <time>2019-05-26T13:26:03Z</time>
      </trkpt>
      <trkpt lat="43.06431" lon="5.9116">
        <ele>-3.23</ele>
        <time>2019-05-26T13:26:22Z</time>
      </trkpt>
      <trkpt lat="43.06436" lon="5.91129">
        <ele>-2.75</ele>
        <time>2019-05-26T13:26:38Z</time>
      </trkpt>
      <trkpt lat="43.06444" lon="5.91092">
        <ele>-2.27</ele>
        <time>2019-05-26T13:26:57Z</time>
      </trkpt>
      <trkpt lat="43.06451" lon="5.91056">
        <ele>-2.75</ele>
        <time>2019-05-26T13:27:16Z</time>
      </trkpt>
      <trkpt lat="43.06459" lon="5.91014">
        <ele>-2.75</ele>
        <time>2019-05-26T13:27:38Z</time>
      </trkpt>
      <trkpt lat="43.06463" lon="5.90985">
        <ele>-2.27</ele>
        <time>2019-05-26T13:27:53Z</time>
      </trkpt>
      <trkpt lat="43.06471" lon="5.90949">
        <ele>-2.27</ele>
        <time>2019-05-26T13:28:11Z</time>
      </trkpt>
      <trkpt lat="43.06479" lon="5.90912">
        <ele>-1.3</ele>
        <time>2019-05-26T13:28:28Z</time>
      </trkpt>
      <trkpt lat="43.06487" lon="5.90874">
        <ele>-0.34</ele>
        <time>2019-05-26T13:28:44Z</time>
      </trkpt>
      <trkpt lat="43.06496" lon="5.90826">
        <ele>-0.82</ele>
        <time>2019-05-26T13:29:03Z</time>
      </trkpt>
      <trkpt lat="43.06503" lon="5.9078">
        <ele>-2.27</ele>
        <time>2019-05-26T13:29:22Z</time>
      </trkpt>
      <trkpt lat="43.06509" lon="5.9074">
        <ele>-2.75</ele>
        <time>2019-05-26T13:29:40Z</time>
      </trkpt>
      <trkpt lat="43.06514" lon="5.90705">
        <ele>-3.23</ele>
        <time>2019-05-26T13:29:56Z</time>
      </trkpt>
      <trkpt lat="43.06518" lon="5.9067">
        <ele>-3.71</ele>
        <time>2019-05-26T13:30:12Z</time>
      </trkpt>
      <trkpt lat="43.06522" lon="5.90629">
        <ele>-3.23</ele>
        <time>2019-05-26T13:30:32Z</time>
      </trkpt>
      <trkpt lat="43.06527" lon="5.90591">
        <ele>-3.23</ele>
        <time>2019-05-26T13:30:50Z</time>
      </trkpt>
      <trkpt lat="43.06533" lon="5.90551">
        <ele>-3.71</ele>
        <time>2019-05-26T13:31:10Z</time>
      </trkpt>
      <trkpt lat="43.06538" lon="5.9052">
        <ele>-3.23</ele>
        <time>2019-05-26T13:31:27Z</time>
      </trkpt>
      <trkpt lat="43.06542" lon="5.90487">
        <ele>-3.23</ele>
        <time>2019-05-26T13:31:44Z</time>
      </trkpt>
      <trkpt lat="43.06547" lon="5.90455">
        <ele>-4.67</ele>
        <time>2019-05-26T13:32:02Z</time>
      </trkpt>
      <trkpt lat="43.06547" lon="5.90449">
        <ele>-4.67</ele>
        <time>2019-05-26T13:32:05Z</time>
      </trkpt>
      <trkpt lat="43.06539" lon="5.9044">
        <ele>-2.75</ele>
        <time>2019-05-26T13:32:16Z</time>
      </trkpt>
      <trkpt lat="43.06518" lon="5.9044">
        <ele>-3.23</ele>
        <time>2019-05-26T13:32:35Z</time>
      </trkpt>
      <trkpt lat="43.06512" lon="5.90431">
        <ele>-3.23</ele>
        <time>2019-05-26T13:32:53Z</time>
      </trkpt>
      <trkpt lat="43.06517" lon="5.90414">
        <ele>-3.23</ele>
        <time>2019-05-26T13:33:13Z</time>
      </trkpt>
      <trkpt lat="43.0652" lon="5.90397">
        <ele>-2.75</ele>
        <time>2019-05-26T13:33:31Z</time>
      </trkpt>
      <trkpt lat="43.06524" lon="5.9038">
        <ele>-3.23</ele>
        <time>2019-05-26T13:33:47Z</time>
      </trkpt>
      <trkpt lat="43.06527" lon="5.9036">
        <ele>-3.23</ele>
        <time>2019-05-26T13:34:06Z</time>
      </trkpt>
      <trkpt lat="43.06531" lon="5.90341">
        <ele>-2.75</ele>
        <time>2019-05-26T13:34:23Z</time>
      </trkpt>
      <trkpt lat="43.06536" lon="5.90318">
        <ele>-3.23</ele>
        <time>2019-05-26T13:34:41Z</time>
      </trkpt>
      <trkpt lat="43.06541" lon="5.90293">
        <ele>-2.75</ele>
        <time>2019-05-26T13:34:59Z</time>
      </trkpt>
      <trkpt lat="43.06546" lon="5.90265">
        <ele>-2.75</ele>
        <time>2019-05-26T13:35:17Z</time>
      </trkpt>
      <trkpt lat="43.06551" lon="5.90233">
        <ele>-2.27</ele>
        <time>2019-05-26T13:35:37Z</time>
      </trkpt>
      <trkpt lat="43.06556" lon="5.90198">
        <ele>-1.79</ele>
        <time>2019-05-26T13:35:57Z</time>
      </trkpt>
      <trkpt lat="43.06563" lon="5.90161">
        <ele>-1.79</ele>
        <time>2019-05-26T13:36:16Z</time>
      </trkpt>
      <trkpt lat="43.06569" lon="5.90128">
        <ele>-2.27</ele>
        <time>2019-05-26T13:36:32Z</time>
      </trkpt>
      <trkpt lat="43.06577" lon="5.90083">
        <ele>-3.23</ele>
        <time>2019-05-26T13:36:53Z</time>
      </trkpt>
      <trkpt lat="43.06582" lon="5.90052">
        <ele>-3.23</ele>
        <time>2019-05-26T13:37:08Z</time>
      </trkpt>
      <trkpt lat="43.06588" lon="5.90014">
        <ele>-3.71</ele>
        <time>2019-05-26T13:37:27Z</time>
      </trkpt>
      <trkpt lat="43.06597" lon="5.89967">
        <ele>-4.19</ele>
        <time>2019-05-26T13:37:48Z</time>
      </trkpt>
      <trkpt lat="43.06606" lon="5.89914">
        <ele>-4.19</ele>
        <time>2019-05-26T13:38:10Z</time>
      </trkpt>
      <trkpt lat="43.06606" lon="5.89868">
        <ele>-3.71</ele>
        <time>2019-05-26T13:38:30Z</time>
      </trkpt>
      <trkpt lat="43.06605" lon="5.89832">
        <ele>-4.19</ele>
        <time>2019-05-26T13:38:49Z</time>
      </trkpt>
      <trkpt lat="43.06609" lon="5.89799">
        <ele>-3.23</ele>
        <time>2019-05-26T13:39:09Z</time>
      </trkpt>
      <trkpt lat="43.0661" lon="5.8977">
        <ele>-4.19</ele>
        <time>2019-05-26T13:39:29Z</time>
      </trkpt>
      <trkpt lat="43.06612" lon="5.89744">
        <ele>-3.71</ele>
        <time>2019-05-26T13:39:48Z</time>
      </trkpt>
      <trkpt lat="43.06614" lon="5.89718">
        <ele>-3.71</ele>
        <time>2019-05-26T13:40:10Z</time>
      </trkpt>
      <trkpt lat="43.06618" lon="5.89694">
        <ele>-3.23</ele>
        <time>2019-05-26T13:40:31Z</time>
      </trkpt>
      <trkpt lat="43.06623" lon="5.8967">
        <ele>-2.27</ele>
        <time>2019-05-26T13:40:54Z</time>
      </trkpt>
      <trkpt lat="43.06628" lon="5.8965">
        <ele>-2.27</ele>
        <time>2019-05-26T13:41:12Z</time>
      </trkpt>
      <trkpt lat="43.06631" lon="5.89639">
        <ele>-1.79</ele>
        <time>2019-05-26T13:41:22Z</time>
      </trkpt>
      <trkpt lat="43.06639" lon="5.89617">
        <ele>-1.79</ele>
        <time>2019-05-26T13:41:41Z</time>
      </trkpt>
      <trkpt lat="43.06651" lon="5.89592">
        <ele>-1.79</ele>
        <time>2019-05-26T13:42:00Z</time>
      </trkpt>
      <trkpt lat="43.06663" lon="5.89561">
        <ele>-1.3</ele>
        <time>2019-05-26T13:42:21Z</time>
      </trkpt>
      <trkpt lat="43.0667" lon="5.89534">
        <ele>-1.79</ele>
        <time>2019-05-26T13:42:38Z</time>
      </trkpt>
      <trkpt lat="43.06678" lon="5.89504">
        <ele>-1.79</ele>
        <time>2019-05-26T13:42:56Z</time>
      </trkpt>
      <trkpt lat="43.06691" lon="5.89464">
        <ele>-0.34</ele>
        <time>2019-05-26T13:43:19Z</time>
      </trkpt>
      <trkpt lat="43.06701" lon="5.89433">
        <ele>-0.34</ele>
        <time>2019-05-26T13:43:37Z</time>
      </trkpt>
      <trkpt lat="43.06713" lon="5.89393">
        <ele>-0.34</ele>
        <time>2019-05-26T13:44:00Z</time>
      </trkpt>
      <trkpt lat="43.06719" lon="5.89356">
        <ele>-0.82</ele>
        <time>2019-05-26T13:44:20Z</time>
      </trkpt>
      <trkpt lat="43.06723" lon="5.89323">
        <ele>-0.82</ele>
        <time>2019-05-26T13:44:39Z</time>
      </trkpt>
      <trkpt lat="43.06727" lon="5.89287">
        <ele>-0.82</ele>
        <time>2019-05-26T13:45:01Z</time>
      </trkpt>
      <trkpt lat="43.06732" lon="5.89261">
        <ele>-1.79</ele>
        <time>2019-05-26T13:45:18Z</time>
      </trkpt>
      <trkpt lat="43.06741" lon="5.8923">
        <ele>-1.79</ele>
        <time>2019-05-26T13:45:39Z</time>
      </trkpt>
      <trkpt lat="43.0675" lon="5.89203">
        <ele>-1.3</ele>
        <time>2019-05-26T13:45:57Z</time>
      </trkpt>
      <trkpt lat="43.06757" lon="5.89175">
        <ele>-1.3</ele>
        <time>2019-05-26T13:46:16Z</time>
      </trkpt>
      <trkpt lat="43.06765" lon="5.89143">
        <ele>-0.82</ele>
        <time>2019-05-26T13:46:37Z</time>
      </trkpt>
      <trkpt lat="43.06771" lon="5.89112">
        <ele>-1.79</ele>
        <time>2019-05-26T13:46:56Z</time>
      </trkpt>
      <trkpt lat="43.06779" lon="5.89084">
        <ele>-1.3</ele>
        <time>2019-05-26T13:47:13Z</time>
      </trkpt>
      <trkpt lat="43.06792" lon="5.89047">
        <ele>-0.82</ele>
        <time>2019-05-26T13:47:37Z</time>
      </trkpt>
      <trkpt lat="43.06795" lon="5.89015">
        <ele>-0.34</ele>
        <time>2019-05-26T13:47:56Z</time>
      </trkpt>
      <trkpt lat="43.06796" lon="5.88982">
        <ele>-0.34</ele>
        <time>2019-05-26T13:48:17Z</time>
      </trkpt>
      <trkpt lat="43.06796" lon="5.88953">
        <ele>-0.34</ele>
        <time>2019-05-26T13:48:36Z</time>
      </trkpt>
      <trkpt lat="43.06793" lon="5.88919">
        <ele>-0.34</ele>
        <time>2019-05-26T13:48:58Z</time>
      </trkpt>
      <trkpt lat="43.0679" lon="5.88888">
        <ele>-0.34</ele>
        <time>2019-05-26T13:49:19Z</time>
      </trkpt>
      <trkpt lat="43.06789" lon="5.88862">
        <ele>0.14</ele>
        <time>2019-05-26T13:49:40Z</time>
      </trkpt>
      <trkpt lat="43.06788" lon="5.88837">
        <ele>-0.34</ele>
        <time>2019-05-26T13:50:01Z</time>
      </trkpt>
      <trkpt lat="43.06784" lon="5.88816">
        <ele>-1.3</ele>
        <time>2019-05-26T13:50:23Z</time>
      </trkpt>
      <trkpt lat="43.0678" lon="5.88797">
        <ele>-1.79</ele>
        <time>2019-05-26T13:50:44Z</time>
      </trkpt>
      <trkpt lat="43.06773" lon="5.88784">
        <ele>-2.27</ele>
        <time>2019-05-26T13:51:05Z</time>
      </trkpt>
      <trkpt lat="43.06767" lon="5.88784">
        <ele>-3.23</ele>
        <time>2019-05-26T13:51:25Z</time>
      </trkpt>
      <trkpt lat="43.06761" lon="5.88793">
        <ele>-3.71</ele>
        <time>2019-05-26T13:51:45Z</time>
      </trkpt>
      <trkpt lat="43.06752" lon="5.88801">
        <ele>-3.71</ele>
        <time>2019-05-26T13:52:03Z</time>
      </trkpt>
      <trkpt lat="43.06741" lon="5.88808">
        <ele>-4.67</ele>
        <time>2019-05-26T13:52:21Z</time>
      </trkpt>
      <trkpt lat="43.06731" lon="5.88815">
        <ele>-4.19</ele>
        <time>2019-05-26T13:52:38Z</time>
      </trkpt>
      <trkpt lat="43.06717" lon="5.88823">
        <ele>-3.71</ele>
        <time>2019-05-26T13:52:57Z</time>
      </trkpt>
      <trkpt lat="43.06704" lon="5.88837">
        <ele>-2.75</ele>
        <time>2019-05-26T13:53:16Z</time>
      </trkpt>
      <trkpt lat="43.06689" lon="5.8885">
        <ele>-2.75</ele>
        <time>2019-05-26T13:53:36Z</time>
      </trkpt>
      <trkpt lat="43.06688" lon="5.88851">
        <ele>-2.75</ele>
        <time>2019-05-26T13:53:38Z</time>
      </trkpt>
      <trkpt lat="43.06672" lon="5.88857">
        <ele>-2.75</ele>
        <time>2019-05-26T13:53:56Z</time>
      </trkpt>
      <trkpt lat="43.06656" lon="5.88868">
        <ele>-2.27</ele>
        <time>2019-05-26T13:54:20Z</time>
      </trkpt>
      <trkpt lat="43.06646" lon="5.88873">
        <ele>-3.23</ele>
        <time>2019-05-26T13:54:40Z</time>
      </trkpt>
      <trkpt lat="43.06637" lon="5.88881">
        <ele>-3.23</ele>
        <time>2019-05-26T13:54:59Z</time>
      </trkpt>
      <trkpt lat="43.06627" lon="5.88894">
        <ele>-2.27</ele>
        <time>2019-05-26T13:55:19Z</time>
      </trkpt>
      <trkpt lat="43.06614" lon="5.88902">
        <ele>-2.27</ele>
        <time>2019-05-26T13:55:37Z</time>
      </trkpt>
      <trkpt lat="43.06603" lon="5.88908">
        <ele>-3.23</ele>
        <time>2019-05-26T13:55:53Z</time>
      </trkpt>
      <trkpt lat="43.06594" lon="5.88909">
        <ele>-3.23</ele>
        <time>2019-05-26T13:56:11Z</time>
      </trkpt>
      <trkpt lat="43.06587" lon="5.88917">
        <ele>-3.23</ele>
        <time>2019-05-26T13:56:29Z</time>
      </trkpt>
      <trkpt lat="43.06583" lon="5.88933">
        <ele>-1.79</ele>
        <time>2019-05-26T13:56:45Z</time>
      </trkpt>
      <trkpt lat="43.0658" lon="5.88953">
        <ele>-1.3</ele>
        <time>2019-05-26T13:57:03Z</time>
      </trkpt>
      <trkpt lat="43.06579" lon="5.88961">
        <ele>-0.82</ele>
        <time>2019-05-26T13:57:10Z</time>
      </trkpt>
      <trkpt lat="43.06579" lon="5.88986">
        <ele>-0.34</ele>
        <time>2019-05-26T13:57:29Z</time>
      </trkpt>
      <trkpt lat="43.0658" lon="5.89007">
        <ele>-1.3</ele>
        <time>2019-05-26T13:57:44Z</time>
      </trkpt>
      <trkpt lat="43.06584" lon="5.89032">
        <ele>-1.79</ele>
        <time>2019-05-26T13:58:02Z</time>
      </trkpt>
      <trkpt lat="43.0659" lon="5.89064">
        <ele>-1.79</ele>
        <time>2019-05-26T13:58:25Z</time>
      </trkpt>
      <trkpt lat="43.06592" lon="5.89086">
        <ele>-0.82</ele>
        <time>2019-05-26T13:58:41Z</time>
      </trkpt>
      <trkpt lat="43.06595" lon="5.89116">
        <ele>-0.82</ele>
        <time>2019-05-26T13:59:01Z</time>
      </trkpt>
      <trkpt lat="43.06596" lon="5.89142">
        <ele>-0.34</ele>
        <time>2019-05-26T13:59:18Z</time>
      </trkpt>
      <trkpt lat="43.06602" lon="5.89173">
        <ele>-0.82</ele>
        <time>2019-05-26T13:59:37Z</time>
      </trkpt>
      <trkpt lat="43.06605" lon="5.89204">
        <ele>0.14</ele>
        <time>2019-05-26T13:59:56Z</time>
      </trkpt>
      <trkpt lat="43.06605" lon="5.89206">
        <ele>0.14</ele>
        <time>2019-05-26T13:59:57Z</time>
      </trkpt>
      <trkpt lat="43.06606" lon="5.89215">
        <ele>0.14</ele>
        <time>2019-05-26T14:00:02Z</time>
      </trkpt>
      <trkpt lat="43.0661" lon="5.89243">
        <ele>-0.34</ele>
        <time>2019-05-26T14:00:18Z</time>
      </trkpt>
      <trkpt lat="43.06613" lon="5.89276">
        <ele>0.14</ele>
        <time>2019-05-26T14:00:36Z</time>
      </trkpt>
      <trkpt lat="43.06612" lon="5.89314">
        <ele>-0.34</ele>
        <time>2019-05-26T14:00:56Z</time>
      </trkpt>
      <trkpt lat="43.06611" lon="5.89356">
        <ele>-0.34</ele>
        <time>2019-05-26T14:01:17Z</time>
      </trkpt>
      <trkpt lat="43.06608" lon="5.894">
        <ele>0.14</ele>
        <time>2019-05-26T14:01:37Z</time>
      </trkpt>
      <trkpt lat="43.06602" lon="5.89432">
        <ele>1.58</ele>
        <time>2019-05-26T14:01:52Z</time>
      </trkpt>
      <trkpt lat="43.06599" lon="5.89442">
        <ele>2.06</ele>
        <time>2019-05-26T14:01:57Z</time>
      </trkpt>
      <trkpt lat="43.06588" lon="5.89481">
        <ele>2.54</ele>
        <time>2019-05-26T14:02:15Z</time>
      </trkpt>
      <trkpt lat="43.06582" lon="5.89517">
        <ele>1.58</ele>
        <time>2019-05-26T14:02:31Z</time>
      </trkpt>
      <trkpt lat="43.06577" lon="5.89567">
        <ele>0.14</ele>
        <time>2019-05-26T14:02:53Z</time>
      </trkpt>
      <trkpt lat="43.06576" lon="5.89599">
        <ele>-0.34</ele>
        <time>2019-05-26T14:03:07Z</time>
      </trkpt>
      <trkpt lat="43.06573" lon="5.8964">
        <ele>-1.79</ele>
        <time>2019-05-26T14:03:26Z</time>
      </trkpt>
      <trkpt lat="43.06572" lon="5.89681">
        <ele>-1.3</ele>
        <time>2019-05-26T14:03:43Z</time>
      </trkpt>
      <trkpt lat="43.06561" lon="5.89721">
        <ele>-1.3</ele>
        <time>2019-05-26T14:03:59Z</time>
      </trkpt>
      <trkpt lat="43.06552" lon="5.89768">
        <ele>-1.79</ele>
        <time>2019-05-26T14:04:17Z</time>
      </trkpt>
      <trkpt lat="43.06543" lon="5.89809">
        <ele>-2.27</ele>
        <time>2019-05-26T14:04:35Z</time>
      </trkpt>
      <trkpt lat="43.06537" lon="5.8985">
        <ele>-2.27</ele>
        <time>2019-05-26T14:04:53Z</time>
      </trkpt>
      <trkpt lat="43.06536" lon="5.89891">
        <ele>-1.79</ele>
        <time>2019-05-26T14:05:11Z</time>
      </trkpt>
      <trkpt lat="43.06538" lon="5.89924">
        <ele>-1.3</ele>
        <time>2019-05-26T14:05:26Z</time>
      </trkpt>
      <trkpt lat="43.0654" lon="5.89963">
        <ele>-1.3</ele>
        <time>2019-05-26T14:05:44Z</time>
      </trkpt>
      <trkpt lat="43.0654" lon="5.90006">
        <ele>-0.82</ele>
        <time>2019-05-26T14:06:04Z</time>
      </trkpt>
      <trkpt lat="43.06543" lon="5.90038">
        <ele>-0.34</ele>
        <time>2019-05-26T14:06:19Z</time>
      </trkpt>
      <trkpt lat="43.06547" lon="5.90078">
        <ele>0.14</ele>
        <time>2019-05-26T14:06:38Z</time>
      </trkpt>
      <trkpt lat="43.06541" lon="5.90116">
        <ele>0.14</ele>
        <time>2019-05-26T14:06:55Z</time>
      </trkpt>
      <trkpt lat="43.06535" lon="5.90128">
        <ele>-0.34</ele>
        <time>2019-05-26T14:07:03Z</time>
      </trkpt>
      <trkpt lat="43.06529" lon="5.90117">
        <ele>-0.34</ele>
        <time>2019-05-26T14:07:17Z</time>
      </trkpt>
      <trkpt lat="43.06545" lon="5.90097">
        <ele>-0.82</ele>
        <time>2019-05-26T14:07:33Z</time>
      </trkpt>
      <trkpt lat="43.06572" lon="5.90069">
        <ele>-0.82</ele>
        <time>2019-05-26T14:07:52Z</time>
      </trkpt>
      <trkpt lat="43.06605" lon="5.90058">
        <ele>-1.3</ele>
        <time>2019-05-26T14:08:07Z</time>
      </trkpt>
      <trkpt lat="43.06647" lon="5.90052">
        <ele>-1.79</ele>
        <time>2019-05-26T14:08:24Z</time>
      </trkpt>
      <trkpt lat="43.06701" lon="5.9002">
        <ele>-1.3</ele>
        <time>2019-05-26T14:08:48Z</time>
      </trkpt>
      <trkpt lat="43.06737" lon="5.90001">
        <ele>-1.79</ele>
        <time>2019-05-26T14:09:08Z</time>
      </trkpt>
      <trkpt lat="43.06766" lon="5.89984">
        <ele>-1.79</ele>
        <time>2019-05-26T14:09:26Z</time>
      </trkpt>
      <trkpt lat="43.06793" lon="5.89973">
        <ele>-1.79</ele>
        <time>2019-05-26T14:09:44Z</time>
      </trkpt>
      <trkpt lat="43.0682" lon="5.89961">
        <ele>-1.79</ele>
        <time>2019-05-26T14:10:02Z</time>
      </trkpt>
      <trkpt lat="43.06847" lon="5.89941">
        <ele>-2.27</ele>
        <time>2019-05-26T14:10:22Z</time>
      </trkpt>
      <trkpt lat="43.06866" lon="5.89917">
        <ele>-2.27</ele>
        <time>2019-05-26T14:10:39Z</time>
      </trkpt>
      <trkpt lat="43.06888" lon="5.89884">
        <ele>-2.27</ele>
        <time>2019-05-26T14:11:00Z</time>
      </trkpt>
      <trkpt lat="43.06919" lon="5.89855">
        <ele>-2.75</ele>
        <time>2019-05-26T14:11:24Z</time>
      </trkpt>
      <trkpt lat="43.06947" lon="5.89834">
        <ele>-1.3</ele>
        <time>2019-05-26T14:11:46Z</time>
      </trkpt>
      <trkpt lat="43.06978" lon="5.89824">
        <ele>-1.79</ele>
        <time>2019-05-26T14:12:09Z</time>
      </trkpt>
      <trkpt lat="43.06982" lon="5.89846">
        <ele>-1.79</ele>
        <time>2019-05-26T14:12:25Z</time>
      </trkpt>
      <trkpt lat="43.0698" lon="5.89848">
        <ele>-2.27</ele>
        <time>2019-05-26T14:12:27Z</time>
      </trkpt>
      <trkpt lat="43.06961" lon="5.89846">
        <ele>-2.27</ele>
        <time>2019-05-26T14:12:47Z</time>
      </trkpt>
      <trkpt lat="43.06942" lon="5.89848">
        <ele>-2.27</ele>
        <time>2019-05-26T14:13:05Z</time>
      </trkpt>
      <trkpt lat="43.06921" lon="5.89868">
        <ele>-2.27</ele>
        <time>2019-05-26T14:13:21Z</time>
      </trkpt>
      <trkpt lat="43.06896" lon="5.89892">
        <ele>-2.27</ele>
        <time>2019-05-26T14:13:36Z</time>
      </trkpt>
      <trkpt lat="43.06873" lon="5.8991">
        <ele>-2.75</ele>
        <time>2019-05-26T14:13:50Z</time>
      </trkpt>
      <trkpt lat="43.06847" lon="5.89929">
        <ele>-3.23</ele>
        <time>2019-05-26T14:14:06Z</time>
      </trkpt>
      <trkpt lat="43.06818" lon="5.89957">
        <ele>-1.79</ele>
        <time>2019-05-26T14:14:24Z</time>
      </trkpt>
      <trkpt lat="43.06789" lon="5.89973">
        <ele>-3.23</ele>
        <time>2019-05-26T14:14:41Z</time>
      </trkpt>
      <trkpt lat="43.06765" lon="5.89985">
        <ele>-3.71</ele>
        <time>2019-05-26T14:14:57Z</time>
      </trkpt>
      <trkpt lat="43.06742" lon="5.9">
        <ele>-4.67</ele>
        <time>2019-05-26T14:15:12Z</time>
      </trkpt>
      <trkpt lat="43.06719" lon="5.90021">
        <ele>-4.19</ele>
        <time>2019-05-26T14:15:27Z</time>
      </trkpt>
      <trkpt lat="43.0669" lon="5.90044">
        <ele>-4.67</ele>
        <time>2019-05-26T14:15:45Z</time>
      </trkpt>
      <trkpt lat="43.06666" lon="5.9007">
        <ele>-3.71</ele>
        <time>2019-05-26T14:16:02Z</time>
      </trkpt>
      <trkpt lat="43.06642" lon="5.90086">
        <ele>-4.19</ele>
        <time>2019-05-26T14:16:19Z</time>
      </trkpt>
      <trkpt lat="43.06622" lon="5.9008">
        <ele>-3.23</ele>
        <time>2019-05-26T14:16:34Z</time>
      </trkpt>
      <trkpt lat="43.06607" lon="5.90067">
        <ele>-3.23</ele>
        <time>2019-05-26T14:16:50Z</time>
      </trkpt>
      <trkpt lat="43.06604" lon="5.90066">
        <ele>-3.23</ele>
        <time>2019-05-26T14:16:54Z</time>
      </trkpt>
      <trkpt lat="43.06588" lon="5.90084">
        <ele>-4.67</ele>
        <time>2019-05-26T14:17:10Z</time>
      </trkpt>
      <trkpt lat="43.06583" lon="5.90091">
        <ele>-4.67</ele>
        <time>2019-05-26T14:17:14Z</time>
      </trkpt>
      <trkpt lat="43.06584" lon="5.9012">
        <ele>-3.23</ele>
        <time>2019-05-26T14:17:27Z</time>
      </trkpt>
      <trkpt lat="43.06608" lon="5.90123">
        <ele>-2.75</ele>
        <time>2019-05-26T14:17:42Z</time>
      </trkpt>
      <trkpt lat="43.06638" lon="5.90127">
        <ele>-1.3</ele>
        <time>2019-05-26T14:18:00Z</time>
      </trkpt>
      <trkpt lat="43.06672" lon="5.9011">
        <ele>-1.79</ele>
        <time>2019-05-26T14:18:20Z</time>
      </trkpt>
      <trkpt lat="43.06709" lon="5.90089">
        <ele>-1.3</ele>
        <time>2019-05-26T14:18:42Z</time>
      </trkpt>
      <trkpt lat="43.06737" lon="5.90082">
        <ele>-2.27</ele>
        <time>2019-05-26T14:18:58Z</time>
      </trkpt>
      <trkpt lat="43.0678" lon="5.9007">
        <ele>-1.79</ele>
        <time>2019-05-26T14:19:20Z</time>
      </trkpt>
      <trkpt lat="43.06815" lon="5.9005">
        <ele>-1.3</ele>
        <time>2019-05-26T14:19:41Z</time>
      </trkpt>
      <trkpt lat="43.06844" lon="5.90031">
        <ele>-0.82</ele>
        <time>2019-05-26T14:20:01Z</time>
      </trkpt>
      <trkpt lat="43.0687" lon="5.90025">
        <ele>-1.79</ele>
        <time>2019-05-26T14:20:21Z</time>
      </trkpt>
      <trkpt lat="43.06897" lon="5.90028">
        <ele>-1.79</ele>
        <time>2019-05-26T14:20:38Z</time>
      </trkpt>
      <trkpt lat="43.06926" lon="5.90025">
        <ele>-1.3</ele>
        <time>2019-05-26T14:20:54Z</time>
      </trkpt>
      <trkpt lat="43.06958" lon="5.90015">
        <ele>-1.79</ele>
        <time>2019-05-26T14:21:14Z</time>
      </trkpt>
      <trkpt lat="43.06984" lon="5.89994">
        <ele>-2.27</ele>
        <time>2019-05-26T14:21:32Z</time>
      </trkpt>
      <trkpt lat="43.06972" lon="5.89973">
        <ele>-1.79</ele>
        <time>2019-05-26T14:21:47Z</time>
      </trkpt>
      <trkpt lat="43.06948" lon="5.89956">
        <ele>-1.79</ele>
        <time>2019-05-26T14:22:05Z</time>
      </trkpt>
      <trkpt lat="43.0693" lon="5.89936">
        <ele>-1.3</ele>
        <time>2019-05-26T14:22:24Z</time>
      </trkpt>
      <trkpt lat="43.06907" lon="5.89933">
        <ele>-2.27</ele>
        <time>2019-05-26T14:22:43Z</time>
      </trkpt>
      <trkpt lat="43.06881" lon="5.89947">
        <ele>-3.23</ele>
        <time>2019-05-26T14:23:01Z</time>
      </trkpt>
      <trkpt lat="43.06861" lon="5.89931">
        <ele>-0.82</ele>
        <time>2019-05-26T14:23:19Z</time>
      </trkpt>
      <trkpt lat="43.06836" lon="5.89929">
        <ele>-1.79</ele>
        <time>2019-05-26T14:23:36Z</time>
      </trkpt>
      <trkpt lat="43.06813" lon="5.89943">
        <ele>-2.27</ele>
        <time>2019-05-26T14:23:49Z</time>
      </trkpt>
      <trkpt lat="43.06787" lon="5.89924">
        <ele>-1.3</ele>
        <time>2019-05-26T14:24:04Z</time>
      </trkpt>
      <trkpt lat="43.06761" lon="5.89923">
        <ele>-2.27</ele>
        <time>2019-05-26T14:24:16Z</time>
      </trkpt>
      <trkpt lat="43.06738" lon="5.89948">
        <ele>-2.27</ele>
        <time>2019-05-26T14:24:30Z</time>
      </trkpt>
      <trkpt lat="43.0671" lon="5.89963">
        <ele>-3.23</ele>
        <time>2019-05-26T14:24:44Z</time>
      </trkpt>
      <trkpt lat="43.06684" lon="5.89953">
        <ele>-2.75</ele>
        <time>2019-05-26T14:24:58Z</time>
      </trkpt>
      <trkpt lat="43.06648" lon="5.89911">
        <ele>-2.27</ele>
        <time>2019-05-26T14:25:18Z</time>
      </trkpt>
      <trkpt lat="43.06619" lon="5.89848">
        <ele>-1.3</ele>
        <time>2019-05-26T14:25:39Z</time>
      </trkpt>
      <trkpt lat="43.06603" lon="5.89795">
        <ele>-0.82</ele>
        <time>2019-05-26T14:25:58Z</time>
      </trkpt>
      <trkpt lat="43.06592" lon="5.89761">
        <ele>-0.34</ele>
        <time>2019-05-26T14:26:13Z</time>
      </trkpt>
      <trkpt lat="43.06576" lon="5.89723">
        <ele>-0.82</ele>
        <time>2019-05-26T14:26:30Z</time>
      </trkpt>
      <trkpt lat="43.06562" lon="5.89688">
        <ele>-0.82</ele>
        <time>2019-05-26T14:26:46Z</time>
      </trkpt>
      <trkpt lat="43.06545" lon="5.89655">
        <ele>-1.3</ele>
        <time>2019-05-26T14:27:03Z</time>
      </trkpt>
      <trkpt lat="43.06524" lon="5.89612">
        <ele>-1.3</ele>
        <time>2019-05-26T14:27:21Z</time>
      </trkpt>
      <trkpt lat="43.0651" lon="5.89566">
        <ele>-0.82</ele>
        <time>2019-05-26T14:27:38Z</time>
      </trkpt>
      <trkpt lat="43.06499" lon="5.89526">
        <ele>0.14</ele>
        <time>2019-05-26T14:27:55Z</time>
      </trkpt>
      <trkpt lat="43.06482" lon="5.89521">
        <ele>-2.27</ele>
        <time>2019-05-26T14:28:06Z</time>
      </trkpt>
      <trkpt lat="43.06481" lon="5.89551">
        <ele>-2.27</ele>
        <time>2019-05-26T14:28:19Z</time>
      </trkpt>
      <trkpt lat="43.06511" lon="5.89557">
        <ele>-2.27</ele>
        <time>2019-05-26T14:28:35Z</time>
      </trkpt>
      <trkpt lat="43.06537" lon="5.89556">
        <ele>-1.3</ele>
        <time>2019-05-26T14:28:48Z</time>
      </trkpt>
      <trkpt lat="43.06536" lon="5.89545">
        <ele>-1.79</ele>
        <time>2019-05-26T14:28:54Z</time>
      </trkpt>
      <trkpt lat="43.06518" lon="5.89518">
        <ele>-1.3</ele>
        <time>2019-05-26T14:29:11Z</time>
      </trkpt>
      <trkpt lat="43.06497" lon="5.89488">
        <ele>-1.3</ele>
        <time>2019-05-26T14:29:27Z</time>
      </trkpt>
      <trkpt lat="43.06492" lon="5.89485">
        <ele>-1.3</ele>
        <time>2019-05-26T14:29:30Z</time>
      </trkpt>
      <trkpt lat="43.0646" lon="5.8951">
        <ele>-2.27</ele>
        <time>2019-05-26T14:29:45Z</time>
      </trkpt>
      <trkpt lat="43.06443" lon="5.89547">
        <ele>-2.27</ele>
        <time>2019-05-26T14:29:58Z</time>
      </trkpt>
      <trkpt lat="43.06428" lon="5.89598">
        <ele>-0.82</ele>
        <time>2019-05-26T14:30:15Z</time>
      </trkpt>
      <trkpt lat="43.06412" lon="5.89653">
        <ele>0.14</ele>
        <time>2019-05-26T14:30:32Z</time>
      </trkpt>
      <trkpt lat="43.06403" lon="5.89702">
        <ele>0.14</ele>
        <time>2019-05-26T14:30:48Z</time>
      </trkpt>
      <trkpt lat="43.06398" lon="5.89753">
        <ele>-0.34</ele>
        <time>2019-05-26T14:31:05Z</time>
      </trkpt>
      <trkpt lat="43.06394" lon="5.89803">
        <ele>-1.3</ele>
        <time>2019-05-26T14:31:21Z</time>
      </trkpt>
      <trkpt lat="43.0639" lon="5.89857">
        <ele>-3.23</ele>
        <time>2019-05-26T14:31:37Z</time>
      </trkpt>
      <trkpt lat="43.06381" lon="5.89916">
        <ele>-2.27</ele>
        <time>2019-05-26T14:31:55Z</time>
      </trkpt>
      <trkpt lat="43.06369" lon="5.89983">
        <ele>-0.34</ele>
        <time>2019-05-26T14:32:15Z</time>
      </trkpt>
      <trkpt lat="43.06361" lon="5.90038">
        <ele>0.14</ele>
        <time>2019-05-26T14:32:31Z</time>
      </trkpt>
      <trkpt lat="43.06355" lon="5.90091">
        <ele>1.1</ele>
        <time>2019-05-26T14:32:46Z</time>
      </trkpt>
      <trkpt lat="43.06351" lon="5.90132">
        <ele>1.1</ele>
        <time>2019-05-26T14:32:58Z</time>
      </trkpt>
      <trkpt lat="43.06346" lon="5.9019">
        <ele>0.62</ele>
        <time>2019-05-26T14:33:15Z</time>
      </trkpt>
      <trkpt lat="43.06341" lon="5.90245">
        <ele>1.1</ele>
        <time>2019-05-26T14:33:31Z</time>
      </trkpt>
      <trkpt lat="43.06336" lon="5.90302">
        <ele>0.14</ele>
        <time>2019-05-26T14:33:48Z</time>
      </trkpt>
      <trkpt lat="43.0633" lon="5.90347">
        <ele>0.62</ele>
        <time>2019-05-26T14:34:02Z</time>
      </trkpt>
      <trkpt lat="43.06322" lon="5.90403">
        <ele>1.1</ele>
        <time>2019-05-26T14:34:19Z</time>
      </trkpt>
      <trkpt lat="43.06314" lon="5.90463">
        <ele>0.14</ele>
        <time>2019-05-26T14:34:37Z</time>
      </trkpt>
      <trkpt lat="43.06306" lon="5.90519">
        <ele>-0.34</ele>
        <time>2019-05-26T14:34:54Z</time>
      </trkpt>
      <trkpt lat="43.06298" lon="5.90583">
        <ele>0.62</ele>
        <time>2019-05-26T14:35:14Z</time>
      </trkpt>
      <trkpt lat="43.06294" lon="5.90635">
        <ele>-0.34</ele>
        <time>2019-05-26T14:35:31Z</time>
      </trkpt>
      <trkpt lat="43.06291" lon="5.90693">
        <ele>-0.82</ele>
        <time>2019-05-26T14:35:49Z</time>
      </trkpt>
      <trkpt lat="43.06286" lon="5.90761">
        <ele>-0.82</ele>
        <time>2019-05-26T14:36:11Z</time>
      </trkpt>
      <trkpt lat="43.0628" lon="5.90812">
        <ele>0.62</ele>
        <time>2019-05-26T14:36:27Z</time>
      </trkpt>
      <trkpt lat="43.06275" lon="5.90853">
        <ele>0.62</ele>
        <time>2019-05-26T14:36:40Z</time>
      </trkpt>
      <trkpt lat="43.06266" lon="5.90908">
        <ele>0.14</ele>
        <time>2019-05-26T14:36:57Z</time>
      </trkpt>
      <trkpt lat="43.06264" lon="5.90953">
        <ele>0.14</ele>
        <time>2019-05-26T14:37:11Z</time>
      </trkpt>
      <trkpt lat="43.06263" lon="5.91001">
        <ele>-0.34</ele>
        <time>2019-05-26T14:37:26Z</time>
      </trkpt>
      <trkpt lat="43.06259" lon="5.91055">
        <ele>-0.34</ele>
        <time>2019-05-26T14:37:43Z</time>
      </trkpt>
      <trkpt lat="43.06261" lon="5.91103">
        <ele>-0.34</ele>
        <time>2019-05-26T14:37:59Z</time>
      </trkpt>
      <trkpt lat="43.06262" lon="5.91151">
        <ele>-0.82</ele>
        <time>2019-05-26T14:38:15Z</time>
      </trkpt>
      <trkpt lat="43.06263" lon="5.91198">
        <ele>-1.3</ele>
        <time>2019-05-26T14:38:31Z</time>
      </trkpt>
      <trkpt lat="43.06267" lon="5.9125">
        <ele>-1.3</ele>
        <time>2019-05-26T14:38:50Z</time>
      </trkpt>
      <trkpt lat="43.06269" lon="5.91303">
        <ele>-0.82</ele>
        <time>2019-05-26T14:39:09Z</time>
      </trkpt>
      <trkpt lat="43.0627" lon="5.91349">
        <ele>-0.82</ele>
        <time>2019-05-26T14:39:26Z</time>
      </trkpt>
      <trkpt lat="43.06266" lon="5.91399">
        <ele>-0.82</ele>
        <time>2019-05-26T14:39:44Z</time>
      </trkpt>
      <trkpt lat="43.06261" lon="5.91452">
        <ele>-1.3</ele>
        <time>2019-05-26T14:40:04Z</time>
      </trkpt>
      <trkpt lat="43.06255" lon="5.91497">
        <ele>-0.82</ele>
        <time>2019-05-26T14:40:21Z</time>
      </trkpt>
      <trkpt lat="43.06252" lon="5.91556">
        <ele>-0.34</ele>
        <time>2019-05-26T14:40:42Z</time>
      </trkpt>
      <trkpt lat="43.06249" lon="5.91607">
        <ele>-0.82</ele>
        <time>2019-05-26T14:41:00Z</time>
      </trkpt>
      <trkpt lat="43.06246" lon="5.91655">
        <ele>-0.82</ele>
        <time>2019-05-26T14:41:17Z</time>
      </trkpt>
      <trkpt lat="43.06243" lon="5.917">
        <ele>-0.34</ele>
        <time>2019-05-26T14:41:34Z</time>
      </trkpt>
      <trkpt lat="43.06239" lon="5.91741">
        <ele>-0.34</ele>
        <time>2019-05-26T14:41:51Z</time>
      </trkpt>
      <trkpt lat="43.06235" lon="5.91774">
        <ele>-0.82</ele>
        <time>2019-05-26T14:42:06Z</time>
      </trkpt>
      <trkpt lat="43.0623" lon="5.91807">
        <ele>0.14</ele>
        <time>2019-05-26T14:42:23Z</time>
      </trkpt>
      <trkpt lat="43.06225" lon="5.91848">
        <ele>1.1</ele>
        <time>2019-05-26T14:42:43Z</time>
      </trkpt>
      <trkpt lat="43.06223" lon="5.91864">
        <ele>0.62</ele>
        <time>2019-05-26T14:42:52Z</time>
      </trkpt>
      <trkpt lat="43.06223" lon="5.91892">
        <ele>-0.34</ele>
        <time>2019-05-26T14:43:07Z</time>
      </trkpt>
      <trkpt lat="43.06226" lon="5.91924">
        <ele>-1.3</ele>
        <time>2019-05-26T14:43:26Z</time>
      </trkpt>
      <trkpt lat="43.06228" lon="5.91952">
        <ele>-2.27</ele>
        <time>2019-05-26T14:43:42Z</time>
      </trkpt>
      <trkpt lat="43.06233" lon="5.91981">
        <ele>-1.79</ele>
        <time>2019-05-26T14:44:00Z</time>
      </trkpt>
      <trkpt lat="43.06239" lon="5.92007">
        <ele>-2.27</ele>
        <time>2019-05-26T14:44:16Z</time>
      </trkpt>
      <trkpt lat="43.06243" lon="5.92033">
        <ele>-1.3</ele>
        <time>2019-05-26T14:44:33Z</time>
      </trkpt>
      <trkpt lat="43.06246" lon="5.9206">
        <ele>-0.34</ele>
        <time>2019-05-26T14:44:50Z</time>
      </trkpt>
      <trkpt lat="43.0625" lon="5.92089">
        <ele>-0.34</ele>
        <time>2019-05-26T14:45:08Z</time>
      </trkpt>
      <trkpt lat="43.06256" lon="5.92113">
        <ele>0.14</ele>
        <time>2019-05-26T14:45:23Z</time>
      </trkpt>
      <trkpt lat="43.06259" lon="5.92123">
        <ele>-0.34</ele>
        <time>2019-05-26T14:45:29Z</time>
      </trkpt>
      <trkpt lat="43.06261" lon="5.92133">
        <ele>-0.34</ele>
        <time>2019-05-26T14:45:35Z</time>
      </trkpt>
      <trkpt lat="43.06265" lon="5.92164">
        <ele>0.62</ele>
        <time>2019-05-26T14:45:54Z</time>
      </trkpt>
      <trkpt lat="43.0627" lon="5.92196">
        <ele>-0.82</ele>
        <time>2019-05-26T14:46:12Z</time>
      </trkpt>
      <trkpt lat="43.06277" lon="5.92227">
        <ele>-0.82</ele>
        <time>2019-05-26T14:46:30Z</time>
      </trkpt>
      <trkpt lat="43.06283" lon="5.9226">
        <ele>-0.82</ele>
        <time>2019-05-26T14:46:48Z</time>
      </trkpt>
      <trkpt lat="43.06288" lon="5.92286">
        <ele>-0.34</ele>
        <time>2019-05-26T14:47:02Z</time>
      </trkpt>
      <trkpt lat="43.06295" lon="5.92313">
        <ele>-0.82</ele>
        <time>2019-05-26T14:47:18Z</time>
      </trkpt>
      <trkpt lat="43.06303" lon="5.92348">
        <ele>-1.3</ele>
        <time>2019-05-26T14:47:38Z</time>
      </trkpt>
      <trkpt lat="43.06309" lon="5.92382">
        <ele>-0.82</ele>
        <time>2019-05-26T14:47:58Z</time>
      </trkpt>
      <trkpt lat="43.06316" lon="5.92413">
        <ele>-0.82</ele>
        <time>2019-05-26T14:48:16Z</time>
      </trkpt>
      <trkpt lat="43.06326" lon="5.92447">
        <ele>0.62</ele>
        <time>2019-05-26T14:48:36Z</time>
      </trkpt>
      <trkpt lat="43.06331" lon="5.92479">
        <ele>0.14</ele>
        <time>2019-05-26T14:48:54Z</time>
      </trkpt>
      <trkpt lat="43.06338" lon="5.92517">
        <ele>-0.34</ele>
        <time>2019-05-26T14:49:16Z</time>
      </trkpt>
      <trkpt lat="43.06345" lon="5.92544">
        <ele>-0.34</ele>
        <time>2019-05-26T14:49:33Z</time>
      </trkpt>
      <trkpt lat="43.06352" lon="5.92576">
        <ele>-0.34</ele>
        <time>2019-05-26T14:49:51Z</time>
      </trkpt>
      <trkpt lat="43.06359" lon="5.92605">
        <ele>0.62</ele>
        <time>2019-05-26T14:50:08Z</time>
      </trkpt>
      <trkpt lat="43.06365" lon="5.92633">
        <ele>0.62</ele>
        <time>2019-05-26T14:50:24Z</time>
      </trkpt>
      <trkpt lat="43.0637" lon="5.92662">
        <ele>1.1</ele>
        <time>2019-05-26T14:50:38Z</time>
      </trkpt>
      <trkpt lat="43.06372" lon="5.92699">
        <ele>0.14</ele>
        <time>2019-05-26T14:50:53Z</time>
      </trkpt>
      <trkpt lat="43.06375" lon="5.9274">
        <ele>-0.82</ele>
        <time>2019-05-26T14:51:09Z</time>
      </trkpt>
      <trkpt lat="43.06379" lon="5.92782">
        <ele>-0.34</ele>
        <time>2019-05-26T14:51:25Z</time>
      </trkpt>
      <trkpt lat="43.06381" lon="5.92824">
        <ele>-0.34</ele>
        <time>2019-05-26T14:51:41Z</time>
      </trkpt>
      <trkpt lat="43.06383" lon="5.92865">
        <ele>0.62</ele>
        <time>2019-05-26T14:51:57Z</time>
      </trkpt>
      <trkpt lat="43.06385" lon="5.92908">
        <ele>1.1</ele>
        <time>2019-05-26T14:52:12Z</time>
      </trkpt>
      <trkpt lat="43.06386" lon="5.92958">
        <ele>0.14</ele>
        <time>2019-05-26T14:52:30Z</time>
      </trkpt>
      <trkpt lat="43.06385" lon="5.93004">
        <ele>1.1</ele>
        <time>2019-05-26T14:52:47Z</time>
      </trkpt>
      <trkpt lat="43.06384" lon="5.9304">
        <ele>0.62</ele>
        <time>2019-05-26T14:53:02Z</time>
      </trkpt>
      <trkpt lat="43.06392" lon="5.9307">
        <ele>0.62</ele>
        <time>2019-05-26T14:53:17Z</time>
      </trkpt>
      <trkpt lat="43.06395" lon="5.93103">
        <ele>0.62</ele>
        <time>2019-05-26T14:53:32Z</time>
      </trkpt>
      <trkpt lat="43.06398" lon="5.93148">
        <ele>-0.34</ele>
        <time>2019-05-26T14:53:49Z</time>
      </trkpt>
      <trkpt lat="43.06399" lon="5.93193">
        <ele>-0.34</ele>
        <time>2019-05-26T14:54:05Z</time>
      </trkpt>
      <trkpt lat="43.06401" lon="5.9324">
        <ele>-0.82</ele>
        <time>2019-05-26T14:54:20Z</time>
      </trkpt>
      <trkpt lat="43.06401" lon="5.93292">
        <ele>-1.3</ele>
        <time>2019-05-26T14:54:37Z</time>
      </trkpt>
      <trkpt lat="43.06401" lon="5.93347">
        <ele>-0.82</ele>
        <time>2019-05-26T14:54:53Z</time>
      </trkpt>
      <trkpt lat="43.06402" lon="5.93411">
        <ele>-1.3</ele>
        <time>2019-05-26T14:55:11Z</time>
      </trkpt>
      <trkpt lat="43.06403" lon="5.93471">
        <ele>-0.82</ele>
        <time>2019-05-26T14:55:28Z</time>
      </trkpt>
      <trkpt lat="43.06404" lon="5.93527">
        <ele>0.14</ele>
        <time>2019-05-26T14:55:44Z</time>
      </trkpt>
      <trkpt lat="43.06406" lon="5.93582">
        <ele>0.14</ele>
        <time>2019-05-26T14:56:00Z</time>
      </trkpt>
      <trkpt lat="43.06407" lon="5.93648">
        <ele>-0.34</ele>
        <time>2019-05-26T14:56:19Z</time>
      </trkpt>
      <trkpt lat="43.06411" lon="5.93704">
        <ele>-1.3</ele>
        <time>2019-05-26T14:56:36Z</time>
      </trkpt>
      <trkpt lat="43.06416" lon="5.93761">
        <ele>-1.3</ele>
        <time>2019-05-26T14:56:53Z</time>
      </trkpt>
      <trkpt lat="43.06421" lon="5.93811">
        <ele>-1.79</ele>
        <time>2019-05-26T14:57:08Z</time>
      </trkpt>
      <trkpt lat="43.06427" lon="5.93863">
        <ele>-2.75</ele>
        <time>2019-05-26T14:57:24Z</time>
      </trkpt>
      <trkpt lat="43.06433" lon="5.93907">
        <ele>-2.75</ele>
        <time>2019-05-26T14:57:38Z</time>
      </trkpt>
      <trkpt lat="43.06441" lon="5.93962">
        <ele>-2.75</ele>
        <time>2019-05-26T14:57:55Z</time>
      </trkpt>
      <trkpt lat="43.06449" lon="5.9402">
        <ele>-2.75</ele>
        <time>2019-05-26T14:58:13Z</time>
      </trkpt>
      <trkpt lat="43.06456" lon="5.94087">
        <ele>-3.23</ele>
        <time>2019-05-26T14:58:33Z</time>
      </trkpt>
      <trkpt lat="43.06464" lon="5.94157">
        <ele>-3.71</ele>
        <time>2019-05-26T14:58:53Z</time>
      </trkpt>
      <trkpt lat="43.06474" lon="5.94217">
        <ele>-3.71</ele>
        <time>2019-05-26T14:59:10Z</time>
      </trkpt>
      <trkpt lat="43.06486" lon="5.94275">
        <ele>-3.23</ele>
        <time>2019-05-26T14:59:28Z</time>
      </trkpt>
      <trkpt lat="43.06499" lon="5.94334">
        <ele>-2.75</ele>
        <time>2019-05-26T14:59:47Z</time>
      </trkpt>
      <trkpt lat="43.06509" lon="5.94383">
        <ele>-2.27</ele>
        <time>2019-05-26T15:00:03Z</time>
      </trkpt>
      <trkpt lat="43.06518" lon="5.94428">
        <ele>-1.3</ele>
        <time>2019-05-26T15:00:18Z</time>
      </trkpt>
      <trkpt lat="43.06525" lon="5.9447">
        <ele>-1.3</ele>
        <time>2019-05-26T15:00:34Z</time>
      </trkpt>
      <trkpt lat="43.06533" lon="5.94517">
        <ele>-1.79</ele>
        <time>2019-05-26T15:00:51Z</time>
      </trkpt>
      <trkpt lat="43.06545" lon="5.94564">
        <ele>-1.79</ele>
        <time>2019-05-26T15:01:07Z</time>
      </trkpt>
      <trkpt lat="43.06557" lon="5.94605">
        <ele>-1.79</ele>
        <time>2019-05-26T15:01:21Z</time>
      </trkpt>
      <trkpt lat="43.06571" lon="5.9465">
        <ele>-1.3</ele>
        <time>2019-05-26T15:01:37Z</time>
      </trkpt>
      <trkpt lat="43.06584" lon="5.94698">
        <ele>-1.79</ele>
        <time>2019-05-26T15:01:53Z</time>
      </trkpt>
      <trkpt lat="43.06598" lon="5.94749">
        <ele>-1.79</ele>
        <time>2019-05-26T15:02:09Z</time>
      </trkpt>
      <trkpt lat="43.06618" lon="5.94802">
        <ele>-2.27</ele>
        <time>2019-05-26T15:02:28Z</time>
      </trkpt>
      <trkpt lat="43.06635" lon="5.94846">
        <ele>-1.3</ele>
        <time>2019-05-26T15:02:44Z</time>
      </trkpt>
      <trkpt lat="43.06654" lon="5.94884">
        <ele>-1.3</ele>
        <time>2019-05-26T15:02:58Z</time>
      </trkpt>
      <trkpt lat="43.06675" lon="5.94921">
        <ele>-0.82</ele>
        <time>2019-05-26T15:03:12Z</time>
      </trkpt>
      <trkpt lat="43.06697" lon="5.94961">
        <ele>-1.79</ele>
        <time>2019-05-26T15:03:27Z</time>
      </trkpt>
      <trkpt lat="43.0672" lon="5.95001">
        <ele>-2.75</ele>
        <time>2019-05-26T15:03:42Z</time>
      </trkpt>
      <trkpt lat="43.06745" lon="5.95042">
        <ele>-3.71</ele>
        <time>2019-05-26T15:03:59Z</time>
      </trkpt>
      <trkpt lat="43.06763" lon="5.95072">
        <ele>-3.71</ele>
        <time>2019-05-26T15:04:11Z</time>
      </trkpt>
      <trkpt lat="43.06792" lon="5.95115">
        <ele>-3.23</ele>
        <time>2019-05-26T15:04:30Z</time>
      </trkpt>
      <trkpt lat="43.06817" lon="5.95151">
        <ele>-3.23</ele>
        <time>2019-05-26T15:04:47Z</time>
      </trkpt>
      <trkpt lat="43.06841" lon="5.95184">
        <ele>-3.23</ele>
        <time>2019-05-26T15:05:02Z</time>
      </trkpt>
      <trkpt lat="43.06872" lon="5.95226">
        <ele>-3.71</ele>
        <time>2019-05-26T15:05:22Z</time>
      </trkpt>
      <trkpt lat="43.06898" lon="5.95259">
        <ele>-3.23</ele>
        <time>2019-05-26T15:05:39Z</time>
      </trkpt>
      <trkpt lat="43.06921" lon="5.95287">
        <ele>-2.75</ele>
        <time>2019-05-26T15:05:54Z</time>
      </trkpt>
      <trkpt lat="43.06949" lon="5.95321">
        <ele>-2.75</ele>
        <time>2019-05-26T15:06:12Z</time>
      </trkpt>
      <trkpt lat="43.06976" lon="5.95357">
        <ele>-3.23</ele>
        <time>2019-05-26T15:06:30Z</time>
      </trkpt>
      <trkpt lat="43.07001" lon="5.95388">
        <ele>-3.23</ele>
        <time>2019-05-26T15:06:46Z</time>
      </trkpt>
      <trkpt lat="43.0703" lon="5.95421">
        <ele>-2.75</ele>
        <time>2019-05-26T15:07:04Z</time>
      </trkpt>
      <trkpt lat="43.07058" lon="5.95448">
        <ele>-3.23</ele>
        <time>2019-05-26T15:07:20Z</time>
      </trkpt>
      <trkpt lat="43.07096" lon="5.95489">
        <ele>-2.75</ele>
        <time>2019-05-26T15:07:42Z</time>
      </trkpt>
      <trkpt lat="43.07129" lon="5.95524">
        <ele>-2.75</ele>
        <time>2019-05-26T15:08:00Z</time>
      </trkpt>
      <trkpt lat="43.07167" lon="5.95563">
        <ele>-3.23</ele>
        <time>2019-05-26T15:08:20Z</time>
      </trkpt>
      <trkpt lat="43.07199" lon="5.95598">
        <ele>-2.75</ele>
        <time>2019-05-26T15:08:37Z</time>
      </trkpt>
      <trkpt lat="43.07235" lon="5.95635">
        <ele>-3.23</ele>
        <time>2019-05-26T15:08:55Z</time>
      </trkpt>
      <trkpt lat="43.07271" lon="5.95673">
        <ele>-2.75</ele>
        <time>2019-05-26T15:09:13Z</time>
      </trkpt>
      <trkpt lat="43.07302" lon="5.95707">
        <ele>-3.23</ele>
        <time>2019-05-26T15:09:29Z</time>
      </trkpt>
      <trkpt lat="43.07333" lon="5.95743">
        <ele>-3.23</ele>
        <time>2019-05-26T15:09:46Z</time>
      </trkpt>
      <trkpt lat="43.07374" lon="5.95787">
        <ele>-3.23</ele>
        <time>2019-05-26T15:10:07Z</time>
      </trkpt>
      <trkpt lat="43.07403" lon="5.95817">
        <ele>-2.75</ele>
        <time>2019-05-26T15:10:22Z</time>
      </trkpt>
      <trkpt lat="43.07435" lon="5.95846">
        <ele>-1.3</ele>
        <time>2019-05-26T15:10:38Z</time>
      </trkpt>
      <trkpt lat="43.07467" lon="5.95874">
        <ele>-0.82</ele>
        <time>2019-05-26T15:10:55Z</time>
      </trkpt>
      <trkpt lat="43.075" lon="5.959">
        <ele>-1.79</ele>
        <time>2019-05-26T15:11:12Z</time>
      </trkpt>
      <trkpt lat="43.07535" lon="5.95925">
        <ele>-2.27</ele>
        <time>2019-05-26T15:11:30Z</time>
      </trkpt>
      <trkpt lat="43.07575" lon="5.95952">
        <ele>-2.75</ele>
        <time>2019-05-26T15:11:50Z</time>
      </trkpt>
      <trkpt lat="43.0761" lon="5.95958">
        <ele>-2.75</ele>
        <time>2019-05-26T15:12:06Z</time>
      </trkpt>
      <trkpt lat="43.0766" lon="5.95928">
        <ele>-2.75</ele>
        <time>2019-05-26T15:12:28Z</time>
      </trkpt>
      <trkpt lat="43.07704" lon="5.95891">
        <ele>-3.71</ele>
        <time>2019-05-26T15:12:46Z</time>
      </trkpt>
      <trkpt lat="43.07753" lon="5.95851">
        <ele>-4.19</ele>
        <time>2019-05-26T15:13:06Z</time>
      </trkpt>
      <trkpt lat="43.07795" lon="5.95817">
        <ele>-4.19</ele>
        <time>2019-05-26T15:13:24Z</time>
      </trkpt>
      <trkpt lat="43.0784" lon="5.95772">
        <ele>-4.19</ele>
        <time>2019-05-26T15:13:45Z</time>
      </trkpt>
      <trkpt lat="43.07875" lon="5.95727">
        <ele>-3.71</ele>
        <time>2019-05-26T15:14:03Z</time>
      </trkpt>
      <trkpt lat="43.07899" lon="5.95684">
        <ele>-2.75</ele>
        <time>2019-05-26T15:14:18Z</time>
      </trkpt>
      <trkpt lat="43.07939" lon="5.95639">
        <ele>-2.27</ele>
        <time>2019-05-26T15:14:38Z</time>
      </trkpt>
      <trkpt lat="43.07981" lon="5.95603">
        <ele>-2.75</ele>
        <time>2019-05-26T15:14:58Z</time>
      </trkpt>
      <trkpt lat="43.08015" lon="5.95565">
        <ele>-2.27</ele>
        <time>2019-05-26T15:15:18Z</time>
      </trkpt>
      <trkpt lat="43.08043" lon="5.95538">
        <ele>-2.75</ele>
        <time>2019-05-26T15:15:35Z</time>
      </trkpt>
      <trkpt lat="43.08086" lon="5.95491">
        <ele>-1.79</ele>
        <time>2019-05-26T15:15:58Z</time>
      </trkpt>
      <trkpt lat="43.08131" lon="5.95441">
        <ele>-2.27</ele>
        <time>2019-05-26T15:16:22Z</time>
      </trkpt>
      <trkpt lat="43.08176" lon="5.95396">
        <ele>-1.79</ele>
        <time>2019-05-26T15:16:45Z</time>
      </trkpt>
      <trkpt lat="43.0821" lon="5.9535">
        <ele>-2.27</ele>
        <time>2019-05-26T15:17:05Z</time>
      </trkpt>
      <trkpt lat="43.08248" lon="5.95316">
        <ele>-1.79</ele>
        <time>2019-05-26T15:17:25Z</time>
      </trkpt>
      <trkpt lat="43.08281" lon="5.95285">
        <ele>-1.79</ele>
        <time>2019-05-26T15:17:44Z</time>
      </trkpt>
      <trkpt lat="43.08312" lon="5.95251">
        <ele>-2.75</ele>
        <time>2019-05-26T15:18:03Z</time>
      </trkpt>
      <trkpt lat="43.0835" lon="5.95211">
        <ele>-1.3</ele>
        <time>2019-05-26T15:18:23Z</time>
      </trkpt>
      <trkpt lat="43.08395" lon="5.9517">
        <ele>-2.27</ele>
        <time>2019-05-26T15:18:46Z</time>
      </trkpt>
      <trkpt lat="43.08429" lon="5.95142">
        <ele>-2.75</ele>
        <time>2019-05-26T15:19:04Z</time>
      </trkpt>
      <trkpt lat="43.08466" lon="5.95112">
        <ele>-2.27</ele>
        <time>2019-05-26T15:19:25Z</time>
      </trkpt>
      <trkpt lat="43.08497" lon="5.95078">
        <ele>-1.79</ele>
        <time>2019-05-26T15:19:45Z</time>
      </trkpt>
      <trkpt lat="43.08536" lon="5.95034">
        <ele>-2.75</ele>
        <time>2019-05-26T15:20:09Z</time>
      </trkpt>
      <trkpt lat="43.0858" lon="5.94985">
        <ele>-3.71</ele>
        <time>2019-05-26T15:20:32Z</time>
      </trkpt>
      <trkpt lat="43.08629" lon="5.94931">
        <ele>-3.71</ele>
        <time>2019-05-26T15:20:58Z</time>
      </trkpt>
      <trkpt lat="43.08663" lon="5.94889">
        <ele>-3.71</ele>
        <time>2019-05-26T15:21:20Z</time>
      </trkpt>
      <trkpt lat="43.08689" lon="5.94846">
        <ele>-3.23</ele>
        <time>2019-05-26T15:21:40Z</time>
      </trkpt>
      <trkpt lat="43.08718" lon="5.94804">
        <ele>-3.71</ele>
        <time>2019-05-26T15:22:02Z</time>
      </trkpt>
      <trkpt lat="43.08746" lon="5.94768">
        <ele>-5.15</ele>
        <time>2019-05-26T15:22:24Z</time>
      </trkpt>
      <trkpt lat="43.08774" lon="5.94735">
        <ele>-5.15</ele>
        <time>2019-05-26T15:22:48Z</time>
      </trkpt>
      <trkpt lat="43.08796" lon="5.94709">
        <ele>-4.19</ele>
        <time>2019-05-26T15:23:11Z</time>
      </trkpt>
      <trkpt lat="43.08819" lon="5.94686">
        <ele>-2.27</ele>
        <time>2019-05-26T15:23:37Z</time>
      </trkpt>
      <trkpt lat="43.08836" lon="5.94667">
        <ele>-2.75</ele>
        <time>2019-05-26T15:23:58Z</time>
      </trkpt>
      <trkpt lat="43.08853" lon="5.94648">
        <ele>-2.75</ele>
        <time>2019-05-26T15:24:22Z</time>
      </trkpt>
      <trkpt lat="43.08869" lon="5.94635">
        <ele>-1.79</ele>
        <time>2019-05-26T15:24:44Z</time>
      </trkpt>
      <trkpt lat="43.08884" lon="5.94622">
        <ele>-0.82</ele>
        <time>2019-05-26T15:25:08Z</time>
      </trkpt>
      <trkpt lat="43.08897" lon="5.9461">
        <ele>0.14</ele>
        <time>2019-05-26T15:25:33Z</time>
      </trkpt>
      <trkpt lat="43.0891" lon="5.946">
        <ele>0.14</ele>
        <time>2019-05-26T15:25:54Z</time>
      </trkpt>
      <trkpt lat="43.08921" lon="5.9459">
        <ele>-1.79</ele>
        <time>2019-05-26T15:26:16Z</time>
      </trkpt>
      <trkpt lat="43.08932" lon="5.94578">
        <ele>-4.19</ele>
        <time>2019-05-26T15:26:40Z</time>
      </trkpt>
      <trkpt lat="43.08942" lon="5.94563">
        <ele>-4.67</ele>
        <time>2019-05-26T15:27:06Z</time>
      </trkpt>
      <trkpt lat="43.08954" lon="5.94553">
        <ele>-1.3</ele>
        <time>2019-05-26T15:27:30Z</time>
      </trkpt>
      <trkpt lat="43.08964" lon="5.94542">
        <ele>-1.79</ele>
        <time>2019-05-26T15:27:51Z</time>
      </trkpt>
      <trkpt lat="43.08981" lon="5.94522">
        <ele>-2.27</ele>
        <time>2019-05-26T15:28:19Z</time>
      </trkpt>
      <trkpt lat="43.09002" lon="5.94496">
        <ele>-3.23</ele>
        <time>2019-05-26T15:28:43Z</time>
      </trkpt>
      <trkpt lat="43.0903" lon="5.94462">
        <ele>-3.23</ele>
        <time>2019-05-26T15:29:07Z</time>
      </trkpt>
      <trkpt lat="43.09068" lon="5.94424">
        <ele>-2.75</ele>
        <time>2019-05-26T15:29:37Z</time>
      </trkpt>
      <trkpt lat="43.09094" lon="5.94399">
        <ele>-1.3</ele>
        <time>2019-05-26T15:29:59Z</time>
      </trkpt>
      <trkpt lat="43.09122" lon="5.94372">
        <ele>-1.79</ele>
        <time>2019-05-26T15:30:22Z</time>
      </trkpt>
      <trkpt lat="43.09159" lon="5.94337">
        <ele>-1.79</ele>
        <time>2019-05-26T15:30:45Z</time>
      </trkpt>
      <trkpt lat="43.09201" lon="5.94299">
        <ele>-1.3</ele>
        <time>2019-05-26T15:31:07Z</time>
      </trkpt>
      <trkpt lat="43.09253" lon="5.94251">
        <ele>-1.3</ele>
        <time>2019-05-26T15:31:32Z</time>
      </trkpt>
      <trkpt lat="43.09303" lon="5.94197">
        <ele>-1.79</ele>
        <time>2019-05-26T15:31:57Z</time>
      </trkpt>
      <trkpt lat="43.09343" lon="5.9414">
        <ele>-2.75</ele>
        <time>2019-05-26T15:32:18Z</time>
      </trkpt>
      <trkpt lat="43.09382" lon="5.94085">
        <ele>-2.27</ele>
        <time>2019-05-26T15:32:38Z</time>
      </trkpt>
      <trkpt lat="43.09423" lon="5.94028">
        <ele>-2.75</ele>
        <time>2019-05-26T15:32:58Z</time>
      </trkpt>
      <trkpt lat="43.09472" lon="5.93971">
        <ele>-2.75</ele>
        <time>2019-05-26T15:33:21Z</time>
      </trkpt>
      <trkpt lat="43.09534" lon="5.93909">
        <ele>-3.23</ele>
        <time>2019-05-26T15:33:50Z</time>
      </trkpt>
      <trkpt lat="43.09587" lon="5.9386">
        <ele>-2.75</ele>
        <time>2019-05-26T15:34:14Z</time>
      </trkpt>
      <trkpt lat="43.09635" lon="5.93817">
        <ele>-0.82</ele>
        <time>2019-05-26T15:34:37Z</time>
      </trkpt>
      <trkpt lat="43.0969" lon="5.93765">
        <ele>-0.82</ele>
        <time>2019-05-26T15:35:04Z</time>
      </trkpt>
      <trkpt lat="43.09742" lon="5.93712">
        <ele>-1.3</ele>
        <time>2019-05-26T15:35:29Z</time>
      </trkpt>
      <trkpt lat="43.09798" lon="5.93658">
        <ele>-1.79</ele>
        <time>2019-05-26T15:35:56Z</time>
      </trkpt>
      <trkpt lat="43.0984" lon="5.93612">
        <ele>-1.3</ele>
        <time>2019-05-26T15:36:17Z</time>
      </trkpt>
      <trkpt lat="43.09855" lon="5.93553">
        <ele>-2.75</ele>
        <time>2019-05-26T15:36:39Z</time>
      </trkpt>
      <trkpt lat="43.09858" lon="5.93482">
        <ele>-3.23</ele>
        <time>2019-05-26T15:37:04Z</time>
      </trkpt>
      <trkpt lat="43.09846" lon="5.93416">
        <ele>-2.75</ele>
        <time>2019-05-26T15:37:27Z</time>
      </trkpt>
      <trkpt lat="43.09822" lon="5.93364">
        <ele>-1.3</ele>
        <time>2019-05-26T15:37:48Z</time>
      </trkpt>
      <trkpt lat="43.09792" lon="5.93325">
        <ele>-0.82</ele>
        <time>2019-05-26T15:38:07Z</time>
      </trkpt>
      <trkpt lat="43.09745" lon="5.93281">
        <ele>-1.3</ele>
        <time>2019-05-26T15:38:33Z</time>
      </trkpt>
      <trkpt lat="43.09707" lon="5.9325">
        <ele>-1.3</ele>
        <time>2019-05-26T15:38:53Z</time>
      </trkpt>
      <trkpt lat="43.09674" lon="5.93226">
        <ele>-1.79</ele>
        <time>2019-05-26T15:39:14Z</time>
      </trkpt>
      <trkpt lat="43.09654" lon="5.93203">
        <ele>-0.34</ele>
        <time>2019-05-26T15:39:37Z</time>
      </trkpt>
      <trkpt lat="43.09644" lon="5.93181">
        <ele>-1.3</ele>
        <time>2019-05-26T15:39:56Z</time>
      </trkpt>
      <trkpt lat="43.09635" lon="5.93155">
        <ele>-0.82</ele>
        <time>2019-05-26T15:40:20Z</time>
      </trkpt>
      <trkpt lat="43.09606" lon="5.93138">
        <ele>-1.79</ele>
        <time>2019-05-26T15:40:38Z</time>
      </trkpt>
      <trkpt lat="43.09562" lon="5.93108">
        <ele>-1.79</ele>
        <time>2019-05-26T15:40:57Z</time>
      </trkpt>
      <trkpt lat="43.09513" lon="5.93076">
        <ele>-2.27</ele>
        <time>2019-05-26T15:41:17Z</time>
      </trkpt>
      <trkpt lat="43.09472" lon="5.93048">
        <ele>-2.27</ele>
        <time>2019-05-26T15:41:36Z</time>
      </trkpt>
      <trkpt lat="43.09416" lon="5.93006">
        <ele>-1.79</ele>
        <time>2019-05-26T15:42:04Z</time>
      </trkpt>
      <trkpt lat="43.09369" lon="5.92974">
        <ele>-1.79</ele>
        <time>2019-05-26T15:42:27Z</time>
      </trkpt>
      <trkpt lat="43.09326" lon="5.92942">
        <ele>-1.79</ele>
        <time>2019-05-26T15:42:49Z</time>
      </trkpt>
      <trkpt lat="43.0927" lon="5.92907">
        <ele>-2.75</ele>
        <time>2019-05-26T15:43:17Z</time>
      </trkpt>
      <trkpt lat="43.09225" lon="5.92876">
        <ele>-2.27</ele>
        <time>2019-05-26T15:43:39Z</time>
      </trkpt>
      <trkpt lat="43.09167" lon="5.92829">
        <ele>-2.75</ele>
        <time>2019-05-26T15:44:09Z</time>
      </trkpt>
      <trkpt lat="43.0912" lon="5.92796">
        <ele>-2.75</ele>
        <time>2019-05-26T15:44:34Z</time>
      </trkpt>
      <trkpt lat="43.09082" lon="5.92776">
        <ele>-3.23</ele>
        <time>2019-05-26T15:44:56Z</time>
      </trkpt>
      <trkpt lat="43.09026" lon="5.92756">
        <ele>-4.19</ele>
        <time>2019-05-26T15:45:21Z</time>
      </trkpt>
      <trkpt lat="43.08975" lon="5.92733">
        <ele>-3.71</ele>
        <time>2019-05-26T15:45:45Z</time>
      </trkpt>
      <trkpt lat="43.08923" lon="5.92708">
        <ele>-5.63</ele>
        <time>2019-05-26T15:46:11Z</time>
      </trkpt>
      <trkpt lat="43.08877" lon="5.9269">
        <ele>-4.19</ele>
        <time>2019-05-26T15:46:37Z</time>
      </trkpt>
      <trkpt lat="43.08841" lon="5.92677">
        <ele>-3.71</ele>
        <time>2019-05-26T15:47:00Z</time>
      </trkpt>
      <trkpt lat="43.08791" lon="5.92657">
        <ele>-4.19</ele>
        <time>2019-05-26T15:47:28Z</time>
      </trkpt>
      <trkpt lat="43.08754" lon="5.92638">
        <ele>-5.63</ele>
        <time>2019-05-26T15:47:54Z</time>
      </trkpt>
      <trkpt lat="43.08724" lon="5.92623">
        <ele>-5.63</ele>
        <time>2019-05-26T15:48:22Z</time>
      </trkpt>
      <trkpt lat="43.08689" lon="5.92609">
        <ele>-3.71</ele>
        <time>2019-05-26T15:48:52Z</time>
      </trkpt>
      <trkpt lat="43.08645" lon="5.92586">
        <ele>-5.15</ele>
        <time>2019-05-26T15:49:20Z</time>
      </trkpt>
      <trkpt lat="43.086" lon="5.92561">
        <ele>-4.19</ele>
        <time>2019-05-26T15:49:45Z</time>
      </trkpt>
      <trkpt lat="43.08552" lon="5.92535">
        <ele>-6.11</ele>
        <time>2019-05-26T15:50:12Z</time>
      </trkpt>
      <trkpt lat="43.08501" lon="5.92509">
        <ele>-5.63</ele>
        <time>2019-05-26T15:50:41Z</time>
      </trkpt>
      <trkpt lat="43.08458" lon="5.92488">
        <ele>-4.19</ele>
        <time>2019-05-26T15:51:08Z</time>
      </trkpt>
      <trkpt lat="43.08426" lon="5.92474">
        <ele>-3.23</ele>
        <time>2019-05-26T15:51:36Z</time>
      </trkpt>
      <trkpt lat="43.08398" lon="5.92467">
        <ele>-3.71</ele>
        <time>2019-05-26T15:52:00Z</time>
      </trkpt>
      <trkpt lat="43.08362" lon="5.9247">
        <ele>-3.71</ele>
        <time>2019-05-26T15:52:24Z</time>
      </trkpt>
      <trkpt lat="43.08308" lon="5.92474">
        <ele>-3.71</ele>
        <time>2019-05-26T15:52:56Z</time>
      </trkpt>
      <trkpt lat="43.08261" lon="5.92474">
        <ele>-5.63</ele>
        <time>2019-05-26T15:53:28Z</time>
      </trkpt>
      <trkpt lat="43.08221" lon="5.92478">
        <ele>-5.63</ele>
        <time>2019-05-26T15:53:54Z</time>
      </trkpt>
      <trkpt lat="43.08175" lon="5.92483">
        <ele>-5.63</ele>
        <time>2019-05-26T15:54:27Z</time>
      </trkpt>
      <trkpt lat="43.08145" lon="5.92488">
        <ele>-4.19</ele>
        <time>2019-05-26T15:55:01Z</time>
      </trkpt>
      <trkpt lat="43.08119" lon="5.92494">
        <ele>-3.23</ele>
        <time>2019-05-26T15:55:38Z</time>
      </trkpt>
      <trkpt lat="43.081" lon="5.925">
        <ele>-2.27</ele>
        <time>2019-05-26T15:56:07Z</time>
      </trkpt>
      <trkpt lat="43.08072" lon="5.92503">
        <ele>-4.67</ele>
        <time>2019-05-26T15:56:36Z</time>
      </trkpt>
      <trkpt lat="43.08026" lon="5.92513">
        <ele>-3.71</ele>
        <time>2019-05-26T15:57:07Z</time>
      </trkpt>
      <trkpt lat="43.08023" lon="5.92521">
        <ele>-2.27</ele>
        <time>2019-05-26T15:57:26Z</time>
      </trkpt>
      <trkpt lat="43.08036" lon="5.92498">
        <ele>-0.82</ele>
        <time>2019-05-26T15:57:53Z</time>
      </trkpt>
      <trkpt lat="43.08036" lon="5.92491">
        <ele>-0.82</ele>
        <time>2019-05-26T15:57:58Z</time>
      </trkpt>
      <trkpt lat="43.08032" lon="5.92455">
        <ele>-1.79</ele>
        <time>2019-05-26T15:58:25Z</time>
      </trkpt>
      <trkpt lat="43.0804" lon="5.92439">
        <ele>-0.82</ele>
        <time>2019-05-26T15:58:51Z</time>
      </trkpt>
      <trkpt lat="43.0804" lon="5.92439">
        <ele>0.14</ele>
        <time>2019-05-26T15:59:27Z</time>
      </trkpt>
      <trkpt lat="43.0804" lon="5.9244">
        <ele>0.14</ele>
        <time>2019-05-26T16:00:02Z</time>
      </trkpt>
      <trkpt lat="43.0804" lon="5.92439">
        <ele>-0.34</ele>
        <time>2019-05-26T16:00:45Z</time>
      </trkpt>
      <trkpt lat="43.0804" lon="5.92439">
        <ele>-1.3</ele>
        <time>2019-05-26T16:01:22Z</time>
      </trkpt>
      <trkpt lat="43.0804" lon="5.92439">
        <ele>-1.79</ele>
        <time>2019-05-26T16:01:54Z</time>
      </trkpt>
      <trkpt lat="43.0804" lon="5.92439">
        <ele>-2.27</ele>
        <time>2019-05-26T16:02:27Z</time>
      </trkpt>
      <trkpt lat="43.0804" lon="5.92439">
        <ele>-2.27</ele>
        <time>2019-05-26T16:03:01Z</time>
      </trkpt>
      <trkpt lat="43.0804" lon="5.92439">
        <ele>-2.75</ele>
        <time>2019-05-26T16:03:36Z</time>
      </trkpt>
      <trkpt lat="43.0804" lon="5.92439">
        <ele>-3.23</ele>
        <time>2019-05-26T16:04:09Z</time>
      </trkpt>
      <trkpt lat="43.08041" lon="5.92439">
        <ele>-2.75</ele>
        <time>2019-05-26T16:04:35Z</time>
      </trkpt>
      <trkpt lat="43.08041" lon="5.92439">
        <ele>-1.79</ele>
        <time>2019-05-26T16:05:04Z</time>
      </trkpt>
      <trkpt lat="43.0804" lon="5.92439">
        <ele>-0.82</ele>
        <time>2019-05-26T16:05:40Z</time>
      </trkpt>
      <trkpt lat="43.0804" lon="5.92439">
        <ele>-0.82</ele>
        <time>2019-05-26T16:06:17Z</time>
      </trkpt>
      <trkpt lat="43.08041" lon="5.92439">
        <ele>-0.82</ele>
        <time>2019-05-26T16:06:53Z</time>
      </trkpt>
      <trkpt lat="43.0804" lon="5.92439">
        <ele>-0.34</ele>
        <time>2019-05-26T16:07:26Z</time>
      </trkpt>
      <trkpt lat="43.0804" lon="5.92439">
        <ele>-0.82</ele>
        <time>2019-05-26T16:07:57Z</time>
      </trkpt>
      <trkpt lat="43.08041" lon="5.92439">
        <ele>-0.82</ele>
        <time>2019-05-26T16:08:28Z</time>
      </trkpt>
      <trkpt lat="43.08041" lon="5.92438">
        <ele>-1.3</ele>
        <time>2019-05-26T16:09:02Z</time>
      </trkpt>
      <trkpt lat="43.08041" lon="5.92439">
        <ele>-0.82</ele>
        <time>2019-05-26T16:09:33Z</time>
      </trkpt>
      <trkpt lat="43.08041" lon="5.92439">
        <ele>-0.34</ele>
        <time>2019-05-26T16:10:00Z</time>
      </trkpt>
      <trkpt lat="43.08041" lon="5.9244">
        <ele>0.14</ele>
        <time>2019-05-26T16:10:35Z</time>
      </trkpt>
      <trkpt lat="43.0804" lon="5.9244">
        <ele>0.62</ele>
        <time>2019-05-26T16:11:07Z</time>
      </trkpt>
      <trkpt lat="43.0804" lon="5.92441">
        <ele>1.1</ele>
        <time>2019-05-26T16:11:43Z</time>
      </trkpt>
      <trkpt lat="43.0804" lon="5.9244">
        <ele>1.58</ele>
        <time>2019-05-26T16:12:17Z</time>
      </trkpt>
      <trkpt lat="43.08041" lon="5.9244">
        <ele>2.06</ele>
        <time>2019-05-26T16:12:51Z</time>
      </trkpt>
      <trkpt lat="43.08041" lon="5.9244">
        <ele>2.06</ele>
        <time>2019-05-26T16:13:23Z</time>
      </trkpt>
      <trkpt lat="43.08042" lon="5.9244">
        <ele>2.54</ele>
        <time>2019-05-26T16:13:46Z</time>
      </trkpt>
      <trkpt lat="43.08042" lon="5.92439">
        <ele>2.54</ele>
        <time>2019-05-26T16:14:18Z</time>
      </trkpt>
      <trkpt lat="43.08042" lon="5.92439">
        <ele>2.54</ele>
        <time>2019-05-26T16:14:48Z</time>
      </trkpt>
      <trkpt lat="43.08042" lon="5.92439">
        <ele>3.02</ele>
        <time>2019-05-26T16:15:21Z</time>
      </trkpt>
      <trkpt lat="43.08042" lon="5.92439">
        <ele>2.54</ele>
        <time>2019-05-26T16:15:36Z</time>
      </trkpt>
    </trkseg>
  </trk>
</gpx>